Data for 01/02/2012

Time Sea-Level Adjusted Pressure Absolute Pressure Temperature Relative Humidity Dew Point Precipitation   
(mb) (inHg) (mb) (inHg) (C) (F) (%) (C) (F) (mm) (in)
00:01 1033 30.5 863 25.48 -9.7 14.6 90 -11 12.2 -92.6 -3.646
00:02 1033 30.5 863 25.48 -9.7 14.6 90 -11 12.1 -92.7 -3.65
00:03 1033 30.5 863 25.48 -9.7 14.6 89 -11.2 11.9 -92.7 -3.65
00:04 1033 30.5 863 25.48 -9.8 14.4 89 -11.2 11.8 -92.7 -3.65
00:05 1033 30.5 863 25.48 -9.8 14.4 91 -11 12.2 -92.7 -3.65
00:06 1033 30.5 863 25.48 -9.7 14.5 91 -10.9 12.4 -92.7 -3.65
00:07 1033 30.5 863 25.48 -9.6 14.7 92 -10.7 12.8 -92.7 -3.65
00:08 1033 30.5 863 25.48 -9.5 14.9 92 -10.6 12.9 -92.7 -3.65
00:09 1033 30.5 863 25.48 -9.3 15.3 95 -10 14 -92.7 -3.65
00:10 1033 30.5 863 25.48 -8.9 16 94 -9.7 14.5 -92.7 -3.65
00:11 1033 30.5 863 25.48 -8.6 16.5 94 -9.4 15.1 -92.7 -3.65
00:12 1033 30.5 863 25.48 -8.5 16.8 92 -9.5 14.9 -92.7 -3.65
00:13 1033 30.5 863 25.48 -8.3 17 92 -9.4 15.1 -92.7 -3.65
00:14 1033 30.5 863 25.48 -8.2 17.2 91 -9.5 14.9 -92.7 -3.65
00:15 1033 30.5 863 25.48 -8.2 17.2 89 -9.8 14.4 -92.7 -3.65
00:16 1033 30.5 863 25.48 -8.3 17 89 -9.8 14.3 -92.7 -3.65
00:17 1033 30.5 863 25.48 -8.4 17 89 -9.9 14.2 -92.7 -3.65
00:18 1033 30.5 863 25.48 -8.5 16.8 88 -10.2 13.7 -92.7 -3.65
00:19 1033 30.5 863 25.48 -8.6 16.5 85 -10.7 12.8 -92.7 -3.65
00:20 1033 30.5 863 25.48 -9 15.9 85 -11 12.2 -92.8 -3.654
00:21 1033 30.5 863 25.48 -9.2 15.4 86 -11.2 11.9 -92.8 -3.654
00:22 1033 30.5 863 25.48 -9.5 15 87 -11.3 11.7 -92.8 -3.654
00:23 1033 30.5 863 25.48 -9.6 14.6 88 -11.3 11.6 -92.8 -3.654
00:24 1033 30.5 863 25.48 -9.7 14.5 89 -11.2 11.9 -92.8 -3.654
00:25 1033 30.5 863 25.48 -9.7 14.6 91 -10.9 12.3 -92.8 -3.654
00:26 1033 30.5 863 25.48 -9.6 14.7 90 -10.9 12.4 -92.8 -3.654
00:27 1033 30.5 863 25.48 -9.6 14.6 91 -10.9 12.5 -92.8 -3.654
00:28 1033 30.5 863 25.48 -9.5 15 93 -10.4 13.3 -92.8 -3.654
00:29 1033 30.5 863 25.48 -9.2 15.4 94 -10.1 13.9 -92.8 -3.654
00:30 1033 30.5 863 25.48 -9.1 15.6 93 -10 14 -92.8 -3.654
00:31 1033 30.5 862 25.45 -8.9 16 94 -9.7 14.6 -92.8 -3.654
00:32 1033 30.5 862 25.45 -8.7 16.4 94 -9.5 14.9 -92.8 -3.654
00:33 1033 30.5 862 25.45 -8.5 16.7 95 -9.2 15.4 -92.8 -3.654
00:34 1033 30.5 862 25.45 -8.4 17 93 -9.3 15.3 -92.8 -3.654
00:35 1033 30.5 862 25.45 -8.2 17.2 94 -9 15.7 -92.8 -3.654
00:36 1033 30.5 862 25.45 -8.1 17.4 93 -9.1 15.7 -92.8 -3.654
00:37 1033 30.5 862 25.45 -8 17.6 93 -8.9 16 -92.8 -3.654
00:38 1033 30.5 862 25.45 -7.8 18 95 -8.5 16.7 -92.8 -3.654
00:39 1033 30.5 862 25.45 -7.5 18.6 95 -8.2 17.2 -92.8 -3.654
00:40 1033 30.5 862 25.45 -7.3 19 93 -8.2 17.3 -92.8 -3.654
00:41 1033 30.5 862 25.45 -7.1 19.2 92 -8.2 17.2 -92.8 -3.654
00:42 1033 30.5 862 25.45 -6.9 19.6 93 -7.9 17.9 -92.8 -3.654
00:43 1033 30.5 862 25.45 -6.6 20.1 93 -7.5 18.5 -92.8 -3.654
00:44 1033 30.5 862 25.45 -6.3 20.7 93 -7.2 19 -92.8 -3.654
00:45 1033 30.5 862 25.45 -6.2 20.9 87 -8 17.6 -92.8 -3.654
00:46 1033 30.5 862 25.45 -6.5 20.3 80 -9.4 15.1 -92.8 -3.654
00:47 1033 30.5 862 25.45 -7.2 19.1 80 -10 13.9 -92.8 -3.654
00:48 1033 30.5 862 25.45 -7.7 18.2 82 -10.2 13.6 -92.8 -3.654
00:49 1033 30.5 862 25.45 -8.1 17.5 87 -9.9 14.1 -92.8 -3.654
00:50 1033 30.5 862 25.45 -8.2 17.2 89 -9.7 14.6 -92.8 -3.654
00:51 1033 30.5 862 25.45 -8.2 17.3 91 -9.3 15.2 -92.8 -3.654
00:52 1033 30.5 862 25.45 -8 17.5 93 -9 15.9 -92.8 -3.654
00:53 1033 30.5 862 25.45 -7.8 18 95 -8.4 16.9 -92.8 -3.654
00:54 1033 30.5 862 25.45 -7.4 18.7 96 -7.9 17.8 -92.8 -3.654
00:55 1033 30.5 862 25.45 -7 19.5 97 -7.4 18.7 -92.8 -3.654
00:56 1033 30.5 862 25.45 -6.8 19.8 94 -7.5 18.5 -92.8 -3.654
00:57 1033 30.5 862 25.45 -6.7 19.9 93 -7.8 18 -92.8 -3.654
00:58 1033 30.5 862 25.45 -6.8 19.8 92 -7.9 17.8 -92.8 -3.654
00:59 1033 30.5 862 25.45 -7 19.4 87 -8.9 16 -92.8 -3.654
01:00 1033 30.5 862 25.45 -7.6 18.3 82 -10.2 13.6 -92.8 -3.654
01:01 1033 30.5 862 25.45 -8 17.6 88 -9.6 14.6 -92.8 -3.654
01:02 1033 30.5 862 25.45 -8 17.6 91 -9.2 15.5 -92.8 -3.654
01:03 1033 30.5 862 25.45 -7.9 17.8 92 -9 15.8 -92.8 -3.654
01:04 1033 30.5 862 25.45 -7.9 17.9 92 -8.9 16 -92.8 -3.654
01:05 1033 30.5 862 25.45 -7.8 18 92 -8.8 16.1 -92.8 -3.654
01:06 1033 30.5 862 25.45 -7.6 18.3 91 -8.8 16.1 -92.8 -3.654
01:07 1033 30.5 862 25.45 -7.6 18.3 91 -8.9 16.1 -92.8 -3.654
01:08 1033 30.5 862 25.45 -7.5 18.6 90 -8.8 16.2 -92.8 -3.654
01:09 1033 30.5 862 25.45 -7.5 18.6 89 -8.9 15.9 -92.8 -3.654
01:10 1033 30.5 862 25.45 -7.6 18.3 83 -10 14 -92.8 -3.654
01:11 1033 30.5 862 25.45 -8 17.5 86 -9.9 14.1 -92.8 -3.654
01:12 1033 30.5 862 25.45 -8.2 17.2 88 -9.8 14.3 -92.8 -3.654
01:13 1033 30.5 862 25.45 -8.3 17.1 90 -9.7 14.5 -92.8 -3.654
01:14 1033 30.5 862 25.45 -8.2 17.2 90 -9.6 14.8 -92.8 -3.654
01:15 1033 30.5 862 25.45 -8.2 17.3 92 -9.2 15.4 -92.9 -3.657
01:16 1033 30.5 862 25.45 -8 17.6 93 -9 15.8 -92.9 -3.657
01:17 1033 30.5 862 25.45 -7.9 17.9 92 -8.9 16 -92.9 -3.657
01:18 1033 30.5 862 25.45 -7.9 17.8 89 -9.4 15 -92.9 -3.657
01:19 1033 30.5 862 25.45 -8.2 17.2 87 -10.1 13.9 -92.9 -3.657
01:20 1033 30.5 862 25.45 -8.4 16.9 89 -9.9 14.2 -92.9 -3.657
01:21 1033 30.5 862 25.45 -8.4 16.9 91 -9.7 14.6 -92.9 -3.657
01:22 1033 30.5 862 25.45 -8.3 17.1 93 -9.3 15.3 -92.9 -3.657
01:23 1033 30.5 862 25.45 -8.2 17.3 92 -9.3 15.2 -92.9 -3.657
01:24 1033 30.5 862 25.45 -8.5 16.8 82 -10.9 12.3 -92.9 -3.657
01:25 1033 30.5 862 25.45 -9 15.9 89 -10.4 13.2 -92.9 -3.657
01:26 1033 30.5 862 25.45 -9 15.9 90 -10.3 13.5 -92.9 -3.657
01:27 1033 30.5 862 25.45 -9.2 15.4 88 -10.9 12.4 -92.9 -3.657
01:28 1033 30.5 862 25.45 -9.4 15 90 -10.8 12.6 -92.9 -3.657
01:29 1033 30.5 862 25.45 -9.6 14.7 88 -11.3 11.6 -92.9 -3.657
01:30 1033 30.5 862 25.45 -9.9 14.1 89 -11.4 11.4 -92.9 -3.657
01:31 1033 30.5 862 25.45 -10 14 91 -11.2 11.9 -92.9 -3.657
01:32 1033 30.5 862 25.45 -9.8 14.4 94 -10.5 13 -92.9 -3.657
01:33 1033 30.5 862 25.45 -9.5 14.9 95 -10.2 13.6 -92.9 -3.657
01:34 1033 30.5 862 25.45 -9.6 14.7 91 -10.8 12.6 -93 -3.661
01:35 1033 30.5 862 25.45 -9.7 14.6 93 -10.7 12.8 -93 -3.661
01:36 1033 30.5 862 25.45 -9.6 14.8 93 -10.5 13.1 -93 -3.661
01:37 1033 30.5 862 25.45 -9.6 14.6 90 -10.9 12.3 -93 -3.661
01:38 1033 30.5 862 25.45 -9.8 14.5 91 -11 12.3 -93 -3.661
01:39 1033 30.5 862 25.45 -9.8 14.3 92 -10.9 12.4 -93 -3.661
01:40 1033 30.5 862 25.45 -9.8 14.4 92 -10.9 12.5 -93 -3.661
01:41 1033 30.5 862 25.45 -9.8 14.4 93 -10.8 12.6 -93 -3.661
01:42 1033 30.5 862 25.45 -9.7 14.6 94 -10.5 13.1 -93 -3.661
01:43 1033 30.5 862 25.45 -9.6 14.7 94 -10.4 13.2 -93 -3.661
01:44 1033 30.5 862 25.45 -9.4 15 95 -10.1 13.8 -93 -3.661
01:45 1033 30.5 862 25.45 -9.3 15.2 94 -10.1 13.8 -93 -3.661
01:46 1033 30.5 862 25.45 -9.3 15.2 92 -10.3 13.4 -93 -3.661
01:47 1033 30.5 862 25.45 -9.5 15 89 -10.9 12.4 -93 -3.661
01:48 1033 30.5 862 25.45 -9.8 14.3 86 -11.8 10.8 -93 -3.661
01:49 1033 30.5 862 25.45 -10.3 13.5 86 -12.2 10 -93 -3.661
01:50 1033 30.5 862 25.45 -10.5 13.2 91 -11.7 10.9 -93 -3.661
01:51 1033 30.5 862 25.45 -10.7 12.7 86 -12.5 9.4 -93 -3.661
01:52 1033 30.5 862 25.45 -11 12.2 88 -12.7 9.1 -93 -3.661
01:53 1033 30.5 862 25.45 -11.2 11.8 88 -12.8 8.9 -93 -3.661
01:54 1033 30.5 862 25.45 -11.4 11.5 89 -12.9 8.8 -93 -3.661
01:55 1032 30.47 862 25.45 -11.5 11.3 90 -12.8 8.9 -93 -3.661
01:56 1033 30.5 862 25.45 -11.5 11.3 91 -12.8 9 -93 -3.661
01:57 1033 30.5 862 25.45 -11.5 11.2 92 -12.6 9.2 -93.1 -3.665
01:58 1033 30.5 862 25.45 -11.4 11.5 94 -12.2 10.1 -93.1 -3.665
01:59 1033 30.5 862 25.45 -11.1 12 95 -11.8 10.8 -93.1 -3.665
02:00 1032 30.47 862 25.45 -10.9 12.3 95 -11.6 11.1 -93.1 -3.665
02:01 1032 30.47 862 25.45 -10.7 12.7 95 -11.4 11.6 -93.1 -3.665
02:02 1032 30.47 862 25.45 -10.5 13.1 95 -11.1 12 -93.1 -3.665
02:03 1032 30.47 862 25.45 -10.5 13.2 92 -11.5 11.3 -93.1 -3.665
02:04 1032 30.47 862 25.45 -10.7 12.8 89 -12.1 10.2 -93.1 -3.665
02:05 1032 30.47 862 25.45 -10.9 12.4 89 -12.4 9.7 -93.1 -3.665
02:06 1032 30.47 862 25.45 -10.9 12.3 92 -12 10.4 -93.1 -3.665
02:07 1032 30.47 862 25.45 -10.7 12.7 94 -11.6 11.2 -93.1 -3.665
02:08 1032 30.47 862 25.45 -10.7 12.7 91 -11.9 10.6 -93.1 -3.665
02:09 1032 30.47 862 25.45 -10.9 12.5 91 -12 10.4 -93.1 -3.665
02:10 1032 30.47 862 25.45 -10.8 12.5 92 -12 10.5 -93.1 -3.665
02:11 1032 30.47 862 25.45 -10.8 12.5 91 -12 10.4 -93.1 -3.665
02:12 1032 30.47 862 25.45 -10.9 12.5 91 -12 10.4 -93.1 -3.665
02:13 1032 30.47 862 25.45 -10.7 12.7 94 -11.6 11.1 -93.1 -3.665
02:14 1032 30.47 862 25.45 -10.5 13.1 94 -11.2 11.8 -93.1 -3.665
02:15 1032 30.47 862 25.45 -10.4 13.3 93 -11.3 11.6 -93.1 -3.665
02:16 1032 30.47 862 25.45 -10.5 13.2 91 -11.6 11.1 -93.1 -3.665
02:17 1032 30.47 862 25.45 -10.5 13.2 91 -11.7 11 -93.1 -3.665
02:18 1032 30.47 862 25.45 -10.5 13 91 -11.7 10.9 -93.1 -3.665
02:19 1032 30.47 862 25.45 -10.5 13.1 91 -11.8 10.8 -93.1 -3.665
02:20 1032 30.47 862 25.45 -10.7 12.8 89 -12.1 10.2 -93.1 -3.665
02:21 1032 30.47 862 25.45 -10.8 12.6 90 -12.1 10.3 -93.1 -3.665
02:22 1032 30.47 862 25.45 -10.7 12.7 91 -12 10.5 -93.1 -3.665
02:23 1032 30.47 862 25.45 -10.7 12.7 92 -11.7 10.9 -93.1 -3.665
02:24 1032 30.47 862 25.45 -10.5 13.2 95 -11.2 11.9 -93.1 -3.665
02:25 1032 30.47 862 25.45 -10.2 13.6 94 -10.9 12.3 -93.1 -3.665
02:26 1032 30.47 862 25.45 -10 14.1 96 -10.5 13 -93.1 -3.665
02:27 1032 30.47 862 25.45 -9.8 14.3 93 -10.8 12.6 -93.1 -3.665
02:28 1032 30.47 862 25.45 -9.8 14.3 92 -10.9 12.3 -93.1 -3.665
02:29 1032 30.47 862 25.45 -9.9 14.2 92 -10.9 12.3 -93.1 -3.665
02:30 1032 30.47 862 25.45 -10 14 88 -11.7 11 -93.1 -3.665
02:31 1032 30.47 862 25.45 -10.2 13.6 90 -11.6 11.1 -93.1 -3.665
02:32 1032 30.47 862 25.45 -10.2 13.6 91 -11.4 11.6 -93.1 -3.665
02:33 1032 30.47 862 25.45 -10.3 13.5 89 -11.8 10.8 -93.1 -3.665
02:34 1032 30.47 862 25.45 -10.4 13.3 91 -11.6 11.1 -93.1 -3.665
02:35 1032 30.47 862 25.45 -10.3 13.5 93 -11.2 11.8 -93.1 -3.665
02:36 1032 30.47 862 25.45 -10.1 13.8 93 -11.1 12.1 -93.1 -3.665
02:37 1032 30.47 862 25.45 -10.2 13.7 91 -11.3 11.6 -93.1 -3.665
02:38 1032 30.47 862 25.45 -10.2 13.7 92 -11.2 11.8 -93.1 -3.665
02:39 1032 30.47 862 25.45 -10.1 13.8 91 -11.4 11.6 -93.1 -3.665
02:40 1032 30.47 862 25.45 -10.3 13.6 89 -11.8 10.8 -93.1 -3.665
02:41 1032 30.47 862 25.45 -10.6 13 87 -12.3 9.8 -93.1 -3.665
02:42 1032 30.47 862 25.45 -10.7 12.8 91 -11.9 10.6 -93.1 -3.665
02:43 1032 30.47 862 25.45 -10.5 13.2 93 -11.4 11.5 -93.1 -3.665
02:44 1032 30.47 862 25.45 -10.4 13.4 93 -11.3 11.7 -93.1 -3.665
02:45 1032 30.47 862 25.45 -10.2 13.6 92 -11.2 11.8 -93.1 -3.665
02:46 1032 30.47 862 25.45 -10.2 13.7 93 -11.2 11.9 -93.1 -3.665
02:47 1032 30.47 862 25.45 -9.9 14.2 95 -10.6 13 -93.1 -3.665
02:48 1032 30.47 862 25.45 -9.5 14.8 96 -10 14 -93.1 -3.665
02:49 1032 30.47 862 25.45 -9.1 15.6 97 -9.5 14.9 -93.1 -3.665
02:50 1032 30.47 862 25.45 -8.8 16.1 95 -9.4 15 -93.1 -3.665
02:51 1032 30.47 862 25.45 -8.9 15.9 90 -10.2 13.6 -93.1 -3.665
02:52 1032 30.47 862 25.45 -9.3 15.3 87 -11.1 12.1 -93.1 -3.665
02:53 1032 30.47 862 25.45 -9.7 14.6 87 -11.5 11.3 -93.1 -3.665
02:54 1032 30.47 862 25.45 -10 14.1 88 -11.6 11.1 -93.1 -3.665
02:55 1032 30.47 862 25.45 -10.1 13.8 91 -11.4 11.5 -93.1 -3.665
02:56 1032 30.47 862 25.45 -10.1 13.8 92 -11.2 11.8 -93.1 -3.665
02:57 1032 30.47 861 25.43 -10.2 13.7 91 -11.4 11.5 -93.1 -3.665
02:58 1032 30.47 861 25.43 -10.3 13.4 91 -11.6 11.1 -93.1 -3.665
02:59 1032 30.47 861 25.43 -10.5 13.2 90 -11.8 10.8 -93.1 -3.665
03:00 1032 30.47 861 25.43 -10.5 13.1 91 -11.7 11 -93.1 -3.665
03:01 1032 30.47 861 25.43 -10.5 13.1 92 -11.5 11.3 -93.1 -3.665
03:02 1032 30.47 861 25.43 -10.4 13.2 94 -11.2 11.8 -93.1 -3.665
03:03 1032 30.47 861 25.43 -10.3 13.4 94 -11.1 12 -93.1 -3.665
03:04 1032 30.47 861 25.43 -10.3 13.5 94 -11 12.1 -93.1 -3.665
03:05 1032 30.47 861 25.43 -10.2 13.6 94 -11 12.1 -93.1 -3.665
03:06 1032 30.47 861 25.43 -10.3 13.4 93 -11.2 11.8 -93.1 -3.665
03:07 1032 30.47 861 25.43 -10.3 13.5 95 -11 12.2 -93.1 -3.665
03:08 1032 30.47 861 25.43 -10.1 13.9 96 -10.6 12.9 -93.1 -3.665
03:09 1032 30.47 861 25.43 -9.8 14.4 97 -10.2 13.6 -93.1 -3.665
03:10 1032 30.47 861 25.43 -9.6 14.7 97 -10 14 -93.1 -3.665
03:11 1032 30.47 861 25.43 -9.5 14.9 97 -9.9 14.1 -93.1 -3.665
03:12 1032 30.47 861 25.43 -9.4 15.1 96 -9.9 14.2 -93.1 -3.665
03:13 1032 30.47 861 25.43 -9.3 15.3 97 -9.7 14.5 -93.1 -3.665
03:14 1032 30.47 861 25.43 -9.2 15.5 97 -9.6 14.8 -93.1 -3.665
03:15 1032 30.47 861 25.43 -9 15.7 97 -9.4 15.1 -93.1 -3.665
03:16 1032 30.47 861 25.43 -9.1 15.7 95 -9.7 14.6 -93.1 -3.665
03:17 1032 30.47 861 25.43 -9.3 15.2 93 -10.2 13.6 -93.1 -3.665
03:18 1032 30.47 861 25.43 -9.4 15 94 -10.2 13.6 -93.1 -3.665
03:19 1032 30.47 861 25.43 -9.4 15.1 95 -10.1 13.9 -93.1 -3.665
03:20 1032 30.47 861 25.43 -9.4 15.1 95 -10.1 13.9 -93.1 -3.665
03:21 1032 30.47 861 25.43 -9.4 15 95 -10.1 13.9 -93.1 -3.665
03:22 1032 30.47 861 25.43 -9.5 14.8 93 -10.4 13.3 -93.1 -3.665
03:23 1032 30.47 861 25.43 -9.8 14.3 91 -11 12.2 -93.1 -3.665
03:24 1032 30.47 861 25.43 -10.2 13.7 91 -11.4 11.5 -93.1 -3.665
03:25 1032 30.47 861 25.43 -10.4 13.3 91 -11.6 11.1 -93.1 -3.665
03:26 1032 30.47 861 25.43 -10.6 13 91 -11.7 11 -93.1 -3.665
03:27 1032 30.47 861 25.43 -10.7 12.8 92 -11.7 10.9 -93.1 -3.665
03:28 1032 30.47 861 25.43 -10.7 12.7 92 -11.8 10.7 -93.1 -3.665
03:29 1032 30.47 861 25.43 -10.8 12.5 92 -11.9 10.7 -93.1 -3.665
03:30 1032 30.47 861 25.43 -10.8 12.5 93 -11.8 10.8 -93.1 -3.665
03:31 1032 30.47 861 25.43 -10.9 12.5 93 -11.8 10.8 -93.1 -3.665
03:32 1032 30.47 861 25.43 -10.8 12.5 93 -11.7 10.9 -93.1 -3.665
03:33 1032 30.47 861 25.43 -10.8 12.6 94 -11.6 11.1 -93.1 -3.665
03:34 1032 30.47 861 25.43 -10.7 12.7 94 -11.5 11.3 -93.1 -3.665
03:35 1032 30.47 861 25.43 -10.6 13 95 -11.3 11.7 -93.1 -3.665
03:36 1032 30.47 861 25.43 -10.5 13.1 95 -11.2 11.8 -93.1 -3.665
03:37 1032 30.47 861 25.43 -10.5 13.2 94 -11.3 11.7 -93.1 -3.665
03:38 1032 30.47 861 25.43 -10.4 13.2 94 -11.2 11.9 -93.1 -3.665
03:39 1032 30.47 861 25.43 -10.3 13.5 95 -10.9 12.3 -93.1 -3.665
03:40 1032 30.47 861 25.43 -10.2 13.6 95 -10.9 12.4 -93.1 -3.665
03:41 1032 30.47 861 25.43 -10.2 13.7 94 -10.9 12.3 -93.1 -3.665
03:42 1032 30.47 861 25.43 -10.2 13.6 94 -11 12.1 -93.1 -3.665
03:43 1032 30.47 861 25.43 -10.2 13.6 94 -11 12.3 -93.1 -3.665
03:44 1032 30.47 861 25.43 -10.2 13.7 94 -11 12.3 -93.1 -3.665
03:45 1032 30.47 861 25.43 -10.2 13.7 95 -10.9 12.4 -93.1 -3.665
03:46 1032 30.47 861 25.43 -10.1 13.8 95 -10.7 12.7 -93.1 -3.665
03:47 1032 30.47 861 25.43 -9.9 14.3 96 -10.3 13.4 -93.1 -3.665
03:48 1032 30.47 861 25.43 -9.6 14.6 96 -10.2 13.7 -93.1 -3.665
03:49 1032 30.47 861 25.43 -9.6 14.7 94 -10.5 13.1 -93.1 -3.665
03:50 1032 30.47 861 25.43 -9.8 14.4 93 -10.7 12.8 -93.1 -3.665
03:51 1032 30.47 861 25.43 -9.7 14.5 94 -10.6 13 -93.1 -3.665
03:52 1032 30.47 861 25.43 -9.6 14.6 94 -10.4 13.3 -93.1 -3.665
03:53 1032 30.47 861 25.43 -9.4 15.1 96 -9.8 14.3 -93.1 -3.665
03:54 1032 30.47 861 25.43 -9 15.9 98 -9.3 15.3 -93.1 -3.665
03:55 1031 30.45 861 25.43 -8.7 16.4 96 -9.2 15.5 -93.1 -3.665
03:56 1032 30.47 861 25.43 -8.6 16.5 94 -9.4 15 -93.1 -3.665
03:57 1031 30.45 861 25.43 -8.7 16.4 93 -9.6 14.7 -93.1 -3.665
03:58 1031 30.45 861 25.43 -8.7 16.3 92 -9.8 14.3 -93.1 -3.665
03:59 1031 30.45 861 25.43 -8.9 15.9 89 -10.5 13.1 -93.1 -3.665
04:00 1031 30.45 861 25.43 -9.3 15.3 88 -11 12.3 -93.1 -3.665
04:01 1031 30.45 861 25.43 -9.6 14.7 88 -11.2 11.8 -93.1 -3.665
04:02 1031 30.45 861 25.43 -9.8 14.3 89 -11.3 11.7 -93.1 -3.665
04:03 1031 30.45 861 25.43 -9.9 14.1 90 -11.3 11.7 -93.1 -3.665
04:04 1031 30.45 861 25.43 -9.9 14.1 93 -10.9 12.4 -93.1 -3.665
04:05 1031 30.45 861 25.43 -9.9 14.2 93 -10.9 12.5 -93.1 -3.665
04:06 1031 30.45 861 25.43 -9.8 14.3 95 -10.5 13.1 -93.1 -3.665
04:07 1031 30.45 861 25.43 -9.6 14.7 96 -10.2 13.7 -93.1 -3.665
04:08 1031 30.45 861 25.43 -9.4 15.1 97 -9.8 14.3 -93.1 -3.665
04:09 1031 30.45 861 25.43 -9.2 15.4 97 -9.6 14.6 -93.1 -3.665
04:10 1031 30.45 861 25.43 -8.8 16.2 99 -9 15.9 -93.1 -3.665
04:11 1031 30.45 861 25.43 -8.4 16.8 98 -8.7 16.3 -93 -3.661
04:12 1031 30.45 861 25.43 -8.6 16.4 96 -9.2 15.4 -93 -3.661
04:13 1031 30.45 861 25.43 -8.8 16.1 94 -9.7 14.6 -93.1 -3.665
04:14 1031 30.45 861 25.43 -9.1 15.7 92 -10.1 13.8 -93.1 -3.665
04:15 1031 30.45 860 25.4 -9.3 15.4 92 -10.3 13.5 -93.1 -3.665
04:16 1031 30.45 860 25.4 -9.2 15.4 94 -10 14.1 -93.1 -3.665
04:17 1031 30.45 860 25.4 -9 15.7 96 -9.6 14.8 -93.1 -3.665
04:18 1031 30.45 860 25.4 -8.9 16 95 -9.5 14.8 -93.1 -3.665
04:19 1031 30.45 861 25.43 -9 15.9 93 -9.9 14.2 -93.1 -3.665
04:20 1031 30.45 861 25.43 -9.2 15.5 92 -10.3 13.4 -93.1 -3.665
04:21 1031 30.45 861 25.43 -9.3 15.3 94 -10.1 13.8 -93.1 -3.665
04:22 1031 30.45 861 25.43 -9.2 15.4 94 -10 14 -93.1 -3.665
04:23 1031 30.45 861 25.43 -9.2 15.4 93 -10.1 13.8 -93.1 -3.665
04:24 1031 30.45 861 25.43 -9.5 14.8 90 -10.9 12.3 -93.1 -3.665
04:25 1031 30.45 861 25.43 -9.9 14.2 91 -11.1 12 -93.1 -3.665
04:26 1031 30.45 860 25.4 -9.8 14.4 94 -10.6 12.8 -93.1 -3.665
04:27 1031 30.45 860 25.4 -9.7 14.5 94 -10.6 13 -93.1 -3.665
04:28 1031 30.45 860 25.4 -9.7 14.6 94 -10.4 13.2 -93.1 -3.665
04:29 1031 30.45 860 25.4 -9.4 15.1 96 -9.9 14.2 -93.1 -3.665
04:30 1031 30.45 860 25.4 -9 15.7 97 -9.4 15.1 -93.1 -3.665
04:31 1031 30.45 860 25.4 -8.7 16.3 97 -9.1 15.7 -93.1 -3.665
04:32 1031 30.45 860 25.4 -8.5 16.8 98 -8.7 16.3 -93.1 -3.665
04:33 1031 30.45 860 25.4 -8.2 17.2 98 -8.5 16.7 -93.1 -3.665
04:34 1031 30.45 860 25.4 -8 17.7 98 -8.2 17.2 -93.1 -3.665
04:35 1031 30.45 860 25.4 -7.9 17.9 97 -8.3 17.1 -93.1 -3.665
04:36 1031 30.45 860 25.4 -8.2 17.2 93 -9.1 15.6 -93.1 -3.665
04:37 1031 30.45 860 25.4 -8.3 17.1 95 -8.9 16 -93 -3.661
04:38 1031 30.45 860 25.4 -8 17.6 96 -8.5 16.7 -93 -3.661
04:39 1031 30.45 860 25.4 -7.8 17.9 97 -8.3 17.1 -93 -3.661
04:40 1031 30.45 860 25.4 -7.7 18.2 95 -8.3 17 -93 -3.661
04:41 1031 30.45 860 25.4 -7.9 17.9 92 -8.9 16 -93 -3.661
04:42 1031 30.45 860 25.4 -8.1 17.5 93 -9.1 15.7 -93 -3.661
04:43 1031 30.45 860 25.4 -8.2 17.2 91 -9.4 15.1 -93 -3.661
04:44 1031 30.45 860 25.4 -8.6 16.6 90 -9.9 14.2 -93 -3.661
04:45 1031 30.45 860 25.4 -8.8 16.1 91 -10.1 13.8 -93 -3.661
04:46 1031 30.45 860 25.4 -8.9 16 93 -9.8 14.4 -93 -3.661
04:47 1031 30.45 860 25.4 -8.7 16.3 95 -9.4 15.1 -93 -3.661
04:48 1031 30.45 860 25.4 -8.6 16.6 96 -9 15.7 -93.1 -3.665
04:49 1031 30.45 860 25.4 -8.3 17.1 97 -8.6 16.5 -93.1 -3.665
04:50 1031 30.45 860 25.4 -8 17.6 98 -8.3 17.1 -93.1 -3.665
04:51 1031 30.45 860 25.4 -7.8 18 98 -8.1 17.4 -93 -3.661
04:52 1031 30.45 860 25.4 -7.6 18.3 97 -8 17.6 -93 -3.661
04:53 1031 30.45 860 25.4 -7.5 18.6 97 -7.9 17.9 -93 -3.661
04:54 1031 30.45 860 25.4 -7.3 18.9 97 -7.7 18.1 -93 -3.661
04:55 1031 30.45 860 25.4 -7.1 19.1 97 -7.6 18.3 -93 -3.661
04:56 1031 30.45 860 25.4 -7.1 19.2 96 -7.7 18.2 -93 -3.661
04:57 1031 30.45 860 25.4 -7.4 18.8 92 -8.5 16.8 -93 -3.661
04:58 1031 30.45 860 25.4 -7.7 18.2 92 -8.8 16.2 -93 -3.661
04:59 1031 30.45 860 25.4 -7.7 18.2 94 -8.5 16.6 -93 -3.661
05:00 1031 30.45 860 25.4 -7.6 18.3 95 -8.4 17 -93 -3.661
05:01 1031 30.45 860 25.4 -7.6 18.3 94 -8.4 16.9 -93 -3.661
05:02 1031 30.45 860 25.4 -7.8 18 90 -9.2 15.5 -93 -3.661
05:03 1031 30.45 860 25.4 -8.4 17 91 -9.6 14.8 -93 -3.661
05:04 1031 30.45 860 25.4 -8.5 16.7 92 -9.5 14.8 -93 -3.661
05:05 1031 30.45 860 25.4 -8.5 16.7 95 -9.2 15.5 -93 -3.661
05:06 1031 30.45 860 25.4 -8.2 17.3 97 -8.6 16.6 -93 -3.661
05:07 1031 30.45 860 25.4 -8 17.7 96 -8.4 16.8 -93 -3.661
05:08 1031 30.45 860 25.4 -8.2 17.2 93 -9.2 15.4 -93 -3.661
05:09 1031 30.45 860 25.4 -8.5 16.8 92 -9.5 14.9 -93 -3.661
05:10 1031 30.45 860 25.4 -8.5 16.7 93 -9.4 15.1 -93 -3.661
05:11 1031 30.45 860 25.4 -8.8 16.3 89 -10.2 13.6 -93 -3.661
05:12 1031 30.45 860 25.4 -9.3 15.3 88 -11 12.3 -93 -3.661
05:13 1031 30.45 860 25.4 -9.4 15 93 -10.3 13.5 -93 -3.661
05:14 1031 30.45 860 25.4 -9.2 15.5 96 -9.8 14.4 -93 -3.661
05:15 1031 30.45 860 25.4 -9.1 15.6 95 -9.8 14.3 -93 -3.661
05:16 1031 30.45 860 25.4 -9.1 15.6 95 -9.8 14.4 -93 -3.661
05:17 1031 30.45 860 25.4 -9 15.8 95 -9.6 14.7 -93 -3.661
05:18 1031 30.45 860 25.4 -8.9 16 96 -9.5 15 -93.1 -3.665
05:19 1031 30.45 860 25.4 -8.9 16 94 -9.7 14.6 -93.1 -3.665
05:20 1031 30.45 860 25.4 -9.1 15.7 92 -10.1 13.8 -93.1 -3.665
05:21 1031 30.45 860 25.4 -9.2 15.4 91 -10.4 13.3 -93.1 -3.665
05:22 1031 30.45 860 25.4 -9.6 14.8 90 -10.9 12.3 -93.1 -3.665
05:23 1031 30.45 860 25.4 -9.7 14.6 93 -10.7 12.8 -93.1 -3.665
05:24 1031 30.45 860 25.4 -9.7 14.6 93 -10.6 13 -93.1 -3.665
05:25 1031 30.45 860 25.4 -9.8 14.4 93 -10.8 12.6 -93.1 -3.665
05:26 1031 30.45 860 25.4 -9.9 14.3 93 -10.9 12.5 -93.1 -3.665
05:27 1031 30.45 860 25.4 -10 14.1 92 -11 12.3 -93.1 -3.665
05:28 1031 30.45 860 25.4 -10 14 93 -10.9 12.3 -93.1 -3.665
05:29 1031 30.45 860 25.4 -10.1 13.9 92 -11.1 12 -93.1 -3.665
05:30 1031 30.45 860 25.4 -10.2 13.7 92 -11.2 11.8 -93.1 -3.665
05:31 1031 30.45 860 25.4 -10 13.9 95 -10.7 12.7 -93.1 -3.665
05:32 1031 30.45 860 25.4 -9.8 14.3 96 -10.4 13.3 -93.1 -3.665
05:33 1031 30.45 860 25.4 -9.7 14.5 96 -10.3 13.5 -93.1 -3.665
05:34 1031 30.45 860 25.4 -9.7 14.6 94 -10.5 13.2 -93.1 -3.665
05:35 1031 30.45 860 25.4 -9.8 14.4 92 -10.8 12.6 -93.1 -3.665
05:36 1031 30.45 860 25.4 -9.9 14.1 91 -11.1 12.1 -93.1 -3.665
05:37 1031 30.45 860 25.4 -10.1 13.9 91 -11.2 11.8 -93.1 -3.665
05:38 1031 30.45 860 25.4 -10.2 13.7 92 -11.2 11.8 -93.1 -3.665
05:39 1031 30.45 860 25.4 -10.2 13.7 93 -11.1 12.1 -93.1 -3.665
05:40 1031 30.45 860 25.4 -10.1 13.8 93 -11 12.1 -93.1 -3.665
05:41 1031 30.45 860 25.4 -10.2 13.7 93 -11.1 12 -93.1 -3.665
05:42 1031 30.45 860 25.4 -10.1 13.8 94 -10.9 12.3 -93.1 -3.665
05:43 1031 30.45 860 25.4 -10.2 13.7 93 -11 12.1 -93.1 -3.665
05:44 1031 30.45 860 25.4 -10.2 13.6 93 -11.2 11.9 -93.1 -3.665
05:45 1031 30.45 860 25.4 -10.2 13.6 94 -11 12.2 -93.1 -3.665
05:46 1031 30.45 860 25.4 -10.2 13.7 94 -10.9 12.4 -93.1 -3.665
05:47 1031 30.45 860 25.4 -10 14 94 -10.8 12.6 -93.1 -3.665
05:48 1031 30.45 860 25.4 -10 14.1 94 -10.7 12.7 -93.1 -3.665
05:49 1031 30.45 860 25.4 -10 14.1 94 -10.8 12.5 -93.1 -3.665
05:50 1031 30.45 860 25.4 -10 14 94 -10.8 12.5 -93.1 -3.665
05:51 1031 30.45 860 25.4 -10 14 93 -10.9 12.3 -93.1 -3.665
05:52 1031 30.45 860 25.4 -10.1 13.9 93 -10.9 12.3 -93.1 -3.665
05:53 1031 30.45 860 25.4 -10 14 94 -10.8 12.6 -93.1 -3.665
05:54 1031 30.45 860 25.4 -9.9 14.2 95 -10.6 12.9 -93.1 -3.665
05:55 1031 30.45 860 25.4 -9.8 14.3 94 -10.6 12.9 -93.1 -3.665
05:56 1031 30.45 860 25.4 -9.8 14.4 94 -10.5 13 -93.1 -3.665
05:57 1031 30.45 860 25.4 -9.7 14.5 94 -10.5 13.1 -93.1 -3.665
05:58 1031 30.45 860 25.4 -9.9 14.2 91 -11.1 12.1 -93.1 -3.665
05:59 1031 30.45 860 25.4 -10 14 93 -10.9 12.4 -93.1 -3.665
06:00 1031 30.45 860 25.4 -9.8 14.3 95 -10.5 13.1 -93.1 -3.665
06:01 1031 30.45 860 25.4 -9.7 14.6 96 -10.3 13.5 -93.1 -3.665
06:02 1031 30.45 860 25.4 -9.6 14.8 94 -10.4 13.3 -93.1 -3.665
06:03 1031 30.45 860 25.4 -9.8 14.4 91 -10.9 12.3 -93.1 -3.665
06:04 1031 30.45 860 25.4 -10 14 91 -11.3 11.7 -93.1 -3.665
06:05 1031 30.45 860 25.4 -10.1 13.8 91 -11.4 11.6 -93.1 -3.665
06:06 1031 30.45 860 25.4 -10.3 13.5 91 -11.6 11.2 -93.1 -3.665
06:07 1031 30.45 860 25.4 -10.4 13.3 91 -11.6 11.2 -93.1 -3.665
06:08 1031 30.45 860 25.4 -10.4 13.2 92 -11.5 11.3 -93.1 -3.665
06:09 1031 30.45 860 25.4 -10.5 13.2 92 -11.5 11.4 -93.1 -3.665
06:10 1031 30.45 860 25.4 -10.5 13.1 92 -11.5 11.3 -93.1 -3.665
06:11 1031 30.45 860 25.4 -10.5 13.1 92 -11.6 11.1 -93.1 -3.665
06:12 1031 30.45 860 25.4 -10.5 13.1 92 -11.5 11.2 -93.1 -3.665
06:13 1031 30.45 860 25.4 -10.5 13.1 91 -11.7 11 -93.1 -3.665
06:14 1031 30.45 860 25.4 -10.6 12.9 90 -11.9 10.5 -93.1 -3.665
06:15 1031 30.45 860 25.4 -10.7 12.7 90 -12.1 10.2 -93.1 -3.665
06:16 1031 30.45 860 25.4 -10.9 12.5 90 -12.2 10.1 -93.1 -3.665
06:17 1031 30.45 860 25.4 -10.9 12.4 90 -12.2 10 -93.1 -3.665
06:18 1031 30.45 860 25.4 -10.9 12.3 92 -12 10.5 -93.1 -3.665
06:19 1031 30.45 860 25.4 -10.7 12.8 95 -11.4 11.5 -93.1 -3.665
06:20 1031 30.45 860 25.4 -10.4 13.3 95 -11 12.2 -93.1 -3.665
06:21 1031 30.45 860 25.4 -10.1 13.8 95 -10.8 12.6 -93.1 -3.665
06:22 1030 30.42 860 25.4 -9.9 14.2 95 -10.6 13 -93.1 -3.665
06:23 1030 30.42 860 25.4 -9.7 14.5 93 -10.6 12.9 -93.1 -3.665
06:24 1030 30.42 860 25.4 -9.6 14.7 94 -10.4 13.4 -93.1 -3.665
06:25 1030 30.42 860 25.4 -9.3 15.2 94 -10.1 13.8 -93.1 -3.665
06:26 1030 30.42 860 25.4 -9.2 15.4 92 -10.3 13.5 -93.1 -3.665
06:27 1030 30.42 860 25.4 -9.4 15.1 88 -11 12.2 -93.1 -3.665
06:28 1030 30.42 860 25.4 -9.7 14.6 88 -11.3 11.6 -93.1 -3.665
06:29 1030 30.42 860 25.4 -9.8 14.4 89 -11.2 11.8 -93.1 -3.665
06:30 1030 30.42 860 25.4 -9.9 14.2 89 -11.3 11.6 -93.1 -3.665
06:31 1030 30.42 860 25.4 -9.9 14.1 90 -11.3 11.6 -93.1 -3.665
06:32 1030 30.42 860 25.4 -10 14.1 91 -11.2 11.9 -93.1 -3.665
06:33 1030 30.42 860 25.4 -9.9 14.3 93 -10.9 12.5 -93.1 -3.665
06:34 1030 30.42 860 25.4 -9.7 14.5 93 -10.7 12.7 -93.1 -3.665
06:35 1030 30.42 860 25.4 -9.7 14.6 91 -10.8 12.5 -93.1 -3.665
06:36 1030 30.42 860 25.4 -9.7 14.6 90 -11 12.1 -93.1 -3.665
06:37 1030 30.42 860 25.4 -9.8 14.4 90 -11.2 11.9 -93.1 -3.665
06:38 1030 30.42 860 25.4 -9.8 14.4 91 -10.9 12.3 -93.1 -3.665
06:39 1030 30.42 860 25.4 -9.7 14.6 93 -10.6 12.8 -93.1 -3.665
06:40 1030 30.42 860 25.4 -9.5 14.9 93 -10.5 13.2 -93.1 -3.665
06:41 1030 30.42 860 25.4 -9.4 15.1 92 -10.4 13.2 -93.1 -3.665
06:42 1030 30.42 860 25.4 -9.4 15.1 90 -10.8 12.6 -93.1 -3.665
06:43 1030 30.42 860 25.4 -9.6 14.8 89 -11.1 12 -93.1 -3.665
06:44 1030 30.42 860 25.4 -9.7 14.6 89 -11.2 11.9 -93.1 -3.665
06:45 1030 30.42 860 25.4 -9.8 14.4 89 -11.3 11.7 -93.1 -3.665
06:46 1030 30.42 860 25.4 -9.8 14.3 90 -11.2 11.9 -93.1 -3.665
06:47 1030 30.42 860 25.4 -9.8 14.4 91 -11 12.2 -93.1 -3.665
06:48 1030 30.42 860 25.4 -9.7 14.5 91 -11 12.3 -93.1 -3.665
06:49 1030 30.42 860 25.4 -9.8 14.4 90 -11.2 11.9 -93.1 -3.665
06:50 1030 30.42 860 25.4 -9.8 14.3 90 -11.1 12 -93.1 -3.665
06:51 1030 30.42 860 25.4 -9.8 14.4 91 -11 12.2 -93.1 -3.665
06:52 1030 30.42 860 25.4 -9.8 14.4 91 -11 12.2 -93.1 -3.665
06:53 1030 30.42 860 25.4 -9.8 14.4 91 -10.9 12.4 -93.1 -3.665
06:54 1030 30.42 860 25.4 -9.7 14.6 92 -10.7 12.7 -93.1 -3.665
06:55 1030 30.42 859 25.37 -9.5 14.9 92 -10.6 12.9 -93.1 -3.665
06:56 1030 30.42 859 25.37 -9.5 15 92 -10.6 13 -93.1 -3.665
06:57 1030 30.42 859 25.37 -9.3 15.2 92 -10.4 13.3 -93.1 -3.665
06:58 1030 30.42 859 25.37 -9.2 15.5 93 -10.1 13.8 -93.1 -3.665
06:59 1030 30.42 859 25.37 -9 15.8 93 -9.9 14.2 -93.1 -3.665
07:00 1030 30.42 859 25.37 -8.8 16.2 93 -9.7 14.5 -93.1 -3.665
07:01 1030 30.42 859 25.37 -8.7 16.4 92 -9.7 14.6 -93.1 -3.665
07:02 1030 30.42 859 25.37 -8.5 16.6 91 -9.7 14.5 -93.1 -3.665
07:03 1030 30.42 859 25.37 -8.5 16.7 90 -9.8 14.3 -93.1 -3.665
07:04 1030 30.42 859 25.37 -8.6 16.6 89 -10.1 13.8 -93 -3.661
07:05 1030 30.42 859 25.37 -8.8 16.2 86 -10.7 12.8 -93 -3.661
07:06 1030 30.42 859 25.37 -9 15.8 87 -10.7 12.7 -93 -3.661
07:07 1030 30.42 859 25.37 -9.2 15.5 89 -10.7 12.8 -93 -3.661
07:08 1030 30.42 859 25.37 -9.2 15.4 90 -10.6 12.8 -93 -3.661
07:09 1030 30.42 859 25.37 -9.4 15.1 88 -11 12.2 -93 -3.661
07:10 1030 30.42 859 25.37 -9.6 14.8 88 -11.1 11.9 -93 -3.661
07:11 1030 30.42 859 25.37 -9.7 14.6 89 -11.2 11.9 -93 -3.661
07:12 1030 30.42 859 25.37 -9.8 14.4 89 -11.3 11.6 -93 -3.661
07:13 1030 30.42 859 25.37 -9.9 14.2 90 -11.3 11.7 -93 -3.661
07:14 1030 30.42 859 25.37 -9.9 14.2 91 -11.1 12.1 -93 -3.661
07:15 1030 30.42 859 25.37 -9.8 14.3 90 -11.1 12 -93 -3.661
07:16 1030 30.42 859 25.37 -10 14.1 90 -11.3 11.7 -93 -3.661
07:17 1030 30.42 859 25.37 -10 14.1 90 -11.2 11.8 -93 -3.661
07:18 1030 30.42 859 25.37 -9.9 14.1 92 -11 12.1 -93 -3.661
07:19 1030 30.42 859 25.37 -9.9 14.1 92 -11 12.2 -93 -3.661
07:20 1030 30.42 859 25.37 -9.8 14.3 92 -10.9 12.5 -93 -3.661
07:21 1030 30.42 859 25.37 -9.8 14.5 92 -10.8 12.6 -93 -3.661
07:22 1030 30.42 859 25.37 -9.7 14.5 91 -11 12.3 -93 -3.661
07:23 1030 30.42 859 25.37 -9.8 14.3 90 -11.2 11.9 -93 -3.661
07:24 1030 30.42 859 25.37 -9.9 14.2 90 -11.2 11.8 -93 -3.661
07:25 1030 30.42 859 25.37 -10 14.1 90 -11.3 11.7 -93 -3.661
07:26 1030 30.42 859 25.37 -10 13.9 90 -11.4 11.5 -93 -3.661
07:27 1030 30.42 859 25.37 -10.1 13.9 91 -11.3 11.6 -93 -3.661
07:28 1030 30.42 859 25.37 -10 13.9 92 -11.2 11.9 -93 -3.661
07:29 1030 30.42 859 25.37 -10 13.9 92 -11.1 11.9 -93 -3.661
07:30 1030 30.42 859 25.37 -10 14.1 92 -11 12.2 -93 -3.661
07:31 1030 30.42 859 25.37 -9.9 14.3 92 -11 12.3 -93 -3.661
07:32 1030 30.42 859 25.37 -9.9 14.2 91 -11.1 12 -93 -3.661
07:33 1030 30.42 859 25.37 -9.9 14.2 92 -11 12.2 -93 -3.661
07:34 1030 30.42 859 25.37 -9.8 14.4 92 -10.9 12.4 -93 -3.661
07:35 1030 30.42 859 25.37 -9.7 14.5 92 -10.8 12.6 -93 -3.661
07:36 1030 30.42 859 25.37 -9.6 14.7 93 -10.6 13 -93 -3.661
07:37 1030 30.42 859 25.37 -9.5 14.9 94 -10.3 13.4 -93 -3.661
07:38 1030 30.42 859 25.37 -9.3 15.2 94 -10.2 13.7 -93 -3.661
07:39 1030 30.42 859 25.37 -9.2 15.5 93 -10.1 13.9 -93 -3.661
07:40 1030 30.42 859 25.37 -9.1 15.7 93 -10.1 13.9 -93 -3.661
07:41 1030 30.42 859 25.37 -9 15.7 92 -10.1 13.8 -93 -3.661
07:42 1030 30.42 859 25.37 -9.1 15.6 91 -10.3 13.4 -93 -3.661
07:43 1030 30.42 859 25.37 -9.2 15.4 90 -10.6 12.9 -93 -3.661
07:44 1030 30.42 859 25.37 -9.4 15.1 89 -10.9 12.3 -93 -3.661
07:45 1030 30.42 859 25.37 -9.5 14.9 90 -10.8 12.5 -93 -3.661
07:46 1030 30.42 859 25.37 -9.5 15 92 -10.6 13 -93 -3.661
07:47 1030 30.42 859 25.37 -9.4 15.1 92 -10.5 13.1 -93 -3.661
07:48 1030 30.42 859 25.37 -9.4 15.1 91 -10.5 13 -93 -3.661
07:49 1030 30.42 859 25.37 -9.4 15.1 91 -10.6 12.9 -93 -3.661
07:50 1030 30.42 859 25.37 -9.5 15 91 -10.7 12.8 -93 -3.661
07:51 1030 30.42 859 25.37 -9.4 15.1 92 -10.4 13.3 -93 -3.661
07:52 1030 30.42 859 25.37 -9.3 15.3 92 -10.4 13.4 -93 -3.661
07:53 1030 30.42 859 25.37 -9.2 15.4 93 -10.1 13.8 -93 -3.661
07:54 1030 30.42 859 25.37 -9 15.7 93 -9.9 14.1 -93 -3.661
07:55 1030 30.42 859 25.37 -9 15.8 92 -10 13.9 -93 -3.661
07:56 1030 30.42 859 25.37 -9 15.7 91 -10.3 13.5 -93 -3.661
07:57 1030 30.42 859 25.37 -9.1 15.7 90 -10.4 13.3 -93 -3.661
07:58 1030 30.42 859 25.37 -9.1 15.6 91 -10.4 13.3 -93 -3.661
07:59 1030 30.42 859 25.37 -9.2 15.5 90 -10.5 13.1 -93 -3.661
08:00 1030 30.42 859 25.37 -9.3 15.3 89 -10.8 12.6 -93 -3.661
08:01 1030 30.42 859 25.37 -9.5 15 89 -11 12.1 -93 -3.661
08:02 1030 30.42 859 25.37 -9.6 14.7 89 -11.1 12.1 -93 -3.661
08:03 1030 30.42 859 25.37 -9.6 14.7 91 -10.8 12.5 -93 -3.661
08:04 1030 30.42 859 25.37 -9.5 14.9 92 -10.5 13 -93 -3.661
08:05 1030 30.42 859 25.37 -9.4 15.1 93 -10.4 13.3 -93 -3.661
08:06 1030 30.42 859 25.37 -9.3 15.2 91 -10.5 13.2 -93 -3.661
08:07 1030 30.42 859 25.37 -9.3 15.2 91 -10.6 12.9 -93 -3.661
08:08 1030 30.42 859 25.37 -9.3 15.2 90 -10.6 12.9 -93 -3.661
08:09 1030 30.42 859 25.37 -9.4 15.1 90 -10.7 12.8 -93 -3.661
08:10 1030 30.42 859 25.37 -9.3 15.2 91 -10.6 13 -93 -3.661
08:11 1030 30.42 859 25.37 -9.3 15.3 92 -10.4 13.3 -93 -3.661
08:12 1030 30.42 859 25.37 -9.2 15.5 93 -10.1 13.7 -93 -3.661
08:13 1030 30.42 859 25.37 -9 15.8 92 -10 13.9 -93 -3.661
08:14 1030 30.42 859 25.37 -9 15.9 92 -10.1 13.9 -93 -3.661
08:15 1030 30.42 859 25.37 -8.9 15.9 91 -10.2 13.7 -93 -3.661
08:16 1030 30.42 859 25.37 -9 15.9 90 -10.3 13.5 -93 -3.661
08:17 1030 30.42 859 25.37 -9 15.8 90 -10.3 13.5 -93 -3.661
08:18 1030 30.42 859 25.37 -9 15.9 91 -10.1 13.8 -93 -3.661
08:19 1030 30.42 859 25.37 -8.9 16 91 -10.1 13.8 -93 -3.661
08:20 1030 30.42 859 25.37 -8.9 16 91 -10.1 13.8 -93 -3.661
08:21 1030 30.42 859 25.37 -8.9 16.1 91 -10.1 13.8 -93 -3.661
08:22 1030 30.42 859 25.37 -8.9 16 91 -10.1 13.8 -93 -3.661
08:23 1030 30.42 859 25.37 -8.8 16.1 91 -10 13.9 -92.9 -3.657
08:24 1030 30.42 859 25.37 -8.7 16.3 92 -9.9 14.3 -92.9 -3.657
08:25 1030 30.42 859 25.37 -8.7 16.4 91 -9.9 14.2 -92.9 -3.657
08:26 1030 30.42 859 25.37 -8.6 16.6 91 -9.8 14.4 -92.9 -3.657
08:27 1030 30.42 859 25.37 -8.5 16.6 90 -9.9 14.1 -92.9 -3.657
08:28 1030 30.42 859 25.37 -8.6 16.5 89 -10.1 13.8 -92.9 -3.657
08:29 1030 30.42 859 25.37 -8.6 16.5 89 -10.1 13.9 -92.9 -3.657
08:30 1030 30.42 859 25.37 -8.7 16.3 89 -10.2 13.7 -92.9 -3.657
08:31 1030 30.42 859 25.37 -8.7 16.3 90 -10.1 13.8 -92.9 -3.657
08:32 1030 30.42 859 25.37 -8.7 16.4 90 -10.1 13.9 -92.9 -3.657
08:33 1029 30.39 859 25.37 -8.7 16.4 91 -9.9 14.1 -92.9 -3.657
08:34 1029 30.39 859 25.37 -8.6 16.5 92 -9.7 14.5 -92.9 -3.657
08:35 1029 30.39 859 25.37 -8.4 16.9 92 -9.5 14.8 -92.9 -3.657
08:36 1029 30.39 859 25.37 -8.3 17 90 -9.7 14.5 -92.9 -3.657
08:37 1029 30.39 859 25.37 -8.4 16.9 89 -9.9 14.2 -92.9 -3.657
08:38 1029 30.39 859 25.37 -8.4 17 89 -9.8 14.4 -92.9 -3.657
08:39 1029 30.39 859 25.37 -8.4 16.9 87 -10.1 13.8 -92.9 -3.657
08:40 1029 30.39 859 25.37 -8.5 16.7 88 -10.1 13.8 -92.9 -3.657
08:41 1029 30.39 859 25.37 -8.5 16.8 90 -9.8 14.3 -92.9 -3.657
08:42 1029 30.39 859 25.37 -8.4 16.9 89 -9.9 14.2 -92.9 -3.657
08:43 1029 30.39 859 25.37 -8.4 16.9 90 -9.8 14.4 -92.9 -3.657
08:44 1029 30.39 859 25.37 -8.4 17 89 -9.8 14.3 -92.9 -3.657
08:45 1029 30.39 859 25.37 -8.4 16.8 89 -9.9 14.1 -92.9 -3.657
08:46 1029 30.39 859 25.37 -8.4 16.9 92 -9.5 14.9 -92.9 -3.657
08:47 1029 30.39 859 25.37 -8.2 17.3 93 -9.1 15.5 -92.9 -3.657
08:48 1029 30.39 859 25.37 -8 17.7 93 -8.9 15.9 -92.9 -3.657
08:49 1029 30.39 859 25.37 -7.8 18 92 -8.8 16.1 -92.9 -3.657
08:50 1029 30.39 859 25.37 -7.8 18 89 -9.3 15.2 -92.9 -3.657
08:51 1029 30.39 859 25.37 -7.9 17.8 89 -9.3 15.2 -92.8 -3.654
08:52 1029 30.39 859 25.37 -7.9 17.8 90 -9.2 15.4 -92.8 -3.654
08:53 1029 30.39 859 25.37 -7.9 17.8 90 -9.3 15.3 -92.8 -3.654
08:54 1029 30.39 859 25.37 -7.9 17.9 91 -9.1 15.6 -92.8 -3.654
08:55 1029 30.39 859 25.37 -7.9 17.9 89 -9.3 15.2 -92.8 -3.654
08:56 1029 30.39 859 25.37 -7.9 17.7 89 -9.4 15 -92.8 -3.654
08:57 1029 30.39 859 25.37 -8 17.6 89 -9.5 14.9 -92.8 -3.654
08:58 1029 30.39 858 25.34 -8.1 17.5 90 -9.5 14.9 -92.8 -3.654
08:59 1029 30.39 858 25.34 -8 17.5 89 -9.5 14.9 -92.8 -3.654
09:00 1029 30.39 859 25.37 -8 17.5 89 -9.5 14.8 -92.8 -3.654
09:01 1029 30.39 859 25.37 -8.1 17.5 88 -9.7 14.6 -92.8 -3.654
09:02 1029 30.39 859 25.37 -8.2 17.2 88 -9.8 14.3 -92.8 -3.654
09:03 1029 30.39 859 25.37 -8.2 17.2 89 -9.8 14.4 -92.8 -3.654
09:04 1029 30.39 859 25.37 -8.3 17.2 89 -9.7 14.5 -92.8 -3.654
09:05 1029 30.39 858 25.34 -8.2 17.2 90 -9.5 14.9 -92.8 -3.654
09:06 1029 30.39 858 25.34 -8.1 17.4 90 -9.4 15.1 -92.8 -3.654
09:07 1029 30.39 858 25.34 -8.1 17.4 90 -9.5 14.9 -92.7 -3.65
09:08 1029 30.39 858 25.34 -8.1 17.5 90 -9.4 15.1 -92.7 -3.65
09:09 1029 30.39 858 25.34 -8 17.6 91 -9.2 15.4 -92.7 -3.65
09:10 1029 30.39 858 25.34 -7.9 17.8 91 -9.1 15.6 -92.7 -3.65
09:11 1029 30.39 858 25.34 -7.7 18.2 91 -8.9 16 -92.7 -3.65
09:12 1029 30.39 858 25.34 -7.5 18.5 92 -8.6 16.6 -92.7 -3.65
09:13 1029 30.39 858 25.34 -7.2 19 91 -8.4 16.9 -92.7 -3.65
09:14 1029 30.39 858 25.34 -7.1 19.2 90 -8.5 16.7 -92.7 -3.65
09:15 1029 30.39 858 25.34 -6.9 19.5 90 -8.4 16.9 -92.7 -3.65
09:16 1029 30.39 858 25.34 -6.8 19.7 91 -8 17.5 -92.7 -3.65
09:17 1029 30.39 859 25.37 -6.6 20.1 91 -7.8 18 -92.7 -3.65
09:18 1029 30.39 858 25.34 -6.4 20.5 91 -7.7 18.2 -92.7 -3.65
09:19 1029 30.39 859 25.37 -6.2 20.8 91 -7.5 18.4 -92.6 -3.646
09:20 1029 30.39 859 25.37 -6.1 21 90 -7.5 18.5 -92.6 -3.646
09:21 1029 30.39 858 25.34 -6.1 21.1 90 -7.5 18.5 -92.6 -3.646
09:22 1029 30.39 858 25.34 -6 21.2 90 -7.4 18.6 -92.6 -3.646
09:23 1029 30.39 858 25.34 -6 21.3 89 -7.5 18.6 -92.6 -3.646
09:24 1029 30.39 858 25.34 -6 21.3 88 -7.7 18.2 -92.6 -3.646
09:25 1029 30.39 858 25.34 -6.1 21 87 -8 17.6 -92.6 -3.646
09:26 1029 30.39 858 25.34 -6.3 20.6 84 -8.5 16.6 -92.6 -3.646
09:27 1029 30.39 858 25.34 -6.5 20.2 86 -8.5 16.6 -92.6 -3.646
09:28 1029 30.39 858 25.34 -6.6 20.1 87 -8.5 16.7 -92.6 -3.646
09:29 1029 30.39 858 25.34 -6.7 19.9 87 -8.5 16.7 -92.6 -3.646
09:30 1029 30.39 858 25.34 -6.8 19.7 84 -9 15.7 -92.6 -3.646
09:31 1029 30.39 858 25.34 -7.2 19.1 84 -9.5 14.9 -92.6 -3.646
09:32 1029 30.39 858 25.34 -7.4 18.7 87 -9.2 15.4 -92.5 -3.642
09:33 1029 30.39 858 25.34 -7.4 18.7 90 -8.8 16.1 -92.5 -3.642
09:34 1029 30.39 858 25.34 -7.3 18.9 90 -8.7 16.4 -92.5 -3.642
09:35 1029 30.39 858 25.34 -7.2 19 89 -8.8 16.2 -92.5 -3.642
09:36 1029 30.39 859 25.37 -7.2 19 89 -8.7 16.3 -92.5 -3.642
09:37 1029 30.39 858 25.34 -7.2 19 89 -8.8 16.2 -92.5 -3.642
09:38 1029 30.39 858 25.34 -7.2 19 89 -8.8 16.2 -92.5 -3.642
09:39 1029 30.39 858 25.34 -7.2 19.1 89 -8.6 16.4 -92.5 -3.642
09:40 1029 30.39 858 25.34 -7.2 19.1 88 -8.9 16.1 -92.5 -3.642
09:41 1029 30.39 858 25.34 -7.2 19 87 -9.1 15.6 -92.5 -3.642
09:42 1029 30.39 858 25.34 -7.2 19.1 86 -9.2 15.5 -92.5 -3.642
09:43 1029 30.39 858 25.34 -7.1 19.2 85 -9.2 15.4 -92.5 -3.642
09:44 1029 30.39 858 25.34 -7.1 19.3 86 -9.1 15.7 -92.5 -3.642
09:45 1029 30.39 858 25.34 -6.9 19.5 85 -9 15.7 -92.4 -3.638
09:46 1029 30.39 858 25.34 -6.7 19.9 86 -8.6 16.5 -92.4 -3.638
09:47 1029 30.39 858 25.34 -6.4 20.4 87 -8.2 17.3 -92.4 -3.638
09:48 1029 30.39 858 25.34 -6.1 20.9 88 -7.8 17.9 -92.4 -3.638
09:49 1029 30.39 858 25.34 -5.9 21.3 88 -7.6 18.2 -92.4 -3.638
09:50 1029 30.39 858 25.34 -5.6 21.8 87 -7.5 18.5 -92.4 -3.638
09:51 1029 30.39 858 25.34 -5.4 22.3 85 -7.5 18.5 -92.4 -3.638
09:52 1029 30.39 858 25.34 -5.2 22.7 84 -7.5 18.6 -92.3 -3.634
09:53 1029 30.39 858 25.34 -5 22.9 81 -7.8 18 -92.3 -3.634
09:54 1029 30.39 858 25.34 -5.1 22.8 81 -7.9 17.8 -92.2 -3.63
09:55 1029 30.39 858 25.34 -5.1 22.8 84 -7.5 18.5 -92.2 -3.63
09:56 1029 30.39 858 25.34 -5 23 84 -7.4 18.7 -92.2 -3.63
09:57 1029 30.39 858 25.34 -4.8 23.3 82 -7.4 18.6 -92.2 -3.63
09:58 1029 30.39 858 25.34 -4.8 23.4 81 -7.5 18.4 -92.2 -3.63
09:59 1029 30.39 858 25.34 -4.6 23.7 80 -7.6 18.4 -92.1 -3.626
10:00 1029 30.39 858 25.34 -4.6 23.8 81 -7.4 18.7 -92.2 -3.63
10:01 1029 30.39 858 25.34 -4.5 23.9 82 -7.2 19.1 -92.1 -3.626
10:02 1029 30.39 858 25.34 -4.4 24.2 82 -7 19.3 -92.1 -3.626
10:03 1029 30.39 858 25.34 -4.2 24.5 81 -6.9 19.5 -92.1 -3.626
10:04 1029 30.39 858 25.34 -4 24.8 80 -6.9 19.6 -92 -3.622
10:05 1029 30.39 858 25.34 -3.8 25.1 79 -7 19.5 -92 -3.622
10:06 1029 30.39 858 25.34 -3.8 25.1 78 -7.2 19.1 -91.9 -3.618
10:07 1029 30.39 858 25.34 -3.9 24.9 77 -7.4 18.7 -91.9 -3.618
10:08 1029 30.39 858 25.34 -4.1 24.7 79 -7.3 18.9 -91.9 -3.618
10:09 1029 30.39 858 25.34 -4.1 24.7 79 -7.2 19.1 -91.9 -3.618
10:10 1029 30.39 858 25.34 -4 24.8 78 -7.2 19.1 -91.8 -3.614
10:11 1029 30.39 858 25.34 -4 24.7 79 -7.2 19 -91.8 -3.614
10:12 1029 30.39 858 25.34 -4.2 24.4 80 -7.3 18.9 -91.8 -3.614
10:13 1029 30.39 858 25.34 -4.4 24.1 80 -7.3 18.9 -91.8 -3.614
10:14 1029 30.39 858 25.34 -4.4 24.1 81 -7.1 19.2 -91.7 -3.61
10:15 1029 30.39 858 25.34 -4.4 24.1 82 -7 19.4 -91.7 -3.61
10:16 1029 30.39 858 25.34 -4.4 24.1 82 -7 19.5 -91.7 -3.61
10:17 1029 30.39 858 25.34 -4.4 24.1 82 -6.9 19.5 -91.7 -3.61
10:18 1029 30.39 858 25.34 -4.4 24 83 -6.9 19.6 -91.6 -3.606
10:19 1029 30.39 858 25.34 -4.5 24 84 -6.8 19.7 -91.6 -3.606
10:20 1029 30.39 858 25.34 -4.4 24 84 -6.8 19.8 -91.6 -3.606
10:21 1029 30.39 858 25.34 -4.4 24.1 83 -6.8 19.7 -91.6 -3.606
10:22 1029 30.39 858 25.34 -4.4 24.1 83 -6.9 19.7 -91.6 -3.606
10:23 1029 30.39 858 25.34 -4.3 24.2 84 -6.7 19.9 -91.6 -3.606
10:24 1029 30.39 858 25.34 -4.3 24.3 84 -6.6 20.1 -91.5 -3.602
10:25 1029 30.39 858 25.34 -4.2 24.4 84 -6.6 20.2 -91.5 -3.602
10:26 1029 30.39 858 25.34 -4.1 24.6 84 -6.5 20.3 -91.5 -3.602
10:27 1029 30.39 858 25.34 -4 24.8 83 -6.5 20.3 -91.5 -3.602
10:28 1029 30.39 858 25.34 -3.8 25.1 83 -6.3 20.6 -91.5 -3.602
10:29 1029 30.39 858 25.34 -3.6 25.4 82 -6.2 20.8 -91.4 -3.598
10:30 1029 30.39 858 25.34 -3.4 25.9 82 -6.1 21 -91.4 -3.598
10:31 1029 30.39 858 25.34 -3.3 26.1 81 -6.1 21.1 -91.4 -3.598
10:32 1029 30.39 858 25.34 -3.2 26.3 81 -6.1 21.1 -91.4 -3.598
10:33 1029 30.39 858 25.34 -3.2 26.3 80 -6.2 20.9 -91.4 -3.598
10:34 1029 30.39 858 25.34 -3.3 26.1 82 -6 21.2 -91.4 -3.598
10:35 1029 30.39 858 25.34 -3.3 26.1 81 -6.1 21 -91.3 -3.594
10:36 1029 30.39 858 25.34 -3.3 26.1 82 -5.9 21.4 -91.3 -3.594
10:37 1029 30.39 858 25.34 -3.1 26.4 82 -5.7 21.7 -91.3 -3.594
10:38 1029 30.39 858 25.34 -3 26.6 82 -5.7 21.8 -91.3 -3.594
10:39 1029 30.39 858 25.34 -2.9 26.8 81 -5.7 21.7 -91.2 -3.591
10:40 1029 30.39 858 25.34 -2.8 26.9 81 -5.7 21.7 -91.2 -3.591
10:41 1029 30.39 858 25.34 -2.8 27 81 -5.6 21.9 -91.2 -3.591
10:42 1029 30.39 858 25.34 -2.7 27.2 80 -5.6 21.8 -91.1 -3.587
10:43 1029 30.39 858 25.34 -2.6 27.3 81 -5.4 22.2 -91.1 -3.587
10:44 1029 30.39 858 25.34 -2.5 27.6 81 -5.4 22.4 -91.1 -3.587
10:45 1029 30.39 858 25.34 -2.3 27.8 79 -5.4 22.2 -91.1 -3.587
10:46 1029 30.39 858 25.34 -2.3 27.9 79 -5.4 22.4 -91.1 -3.587
10:47 1029 30.39 858 25.34 -2.2 28.1 80 -5.2 22.6 -91.1 -3.587
10:48 1029 30.39 858 25.34 -2.1 28.2 79 -5.3 22.5 -91.1 -3.587
10:49 1028 30.36 858 25.34 -2.1 28.2 79 -5.3 22.4 -91.1 -3.587
10:50 1028 30.36 858 25.34 -2.2 28.1 78 -5.5 22 -91.1 -3.587
10:51 1028 30.36 858 25.34 -2.2 28 78 -5.5 22 -91 -3.583
10:52 1028 30.36 858 25.34 -2.3 27.9 79 -5.4 22.3 -91 -3.583
10:53 1028 30.36 858 25.34 -2.2 28 78 -5.5 22.1 -91 -3.583
10:54 1028 30.36 858 25.34 -2.2 28.1 79 -5.3 22.4 -91 -3.583
10:55 1028 30.36 857 25.31 -2 28.4 79 -5.2 22.7 -91 -3.583
10:56 1028 30.36 858 25.34 -1.8 28.7 79 -5.1 22.8 -90.9 -3.579
10:57 1028 30.36 858 25.34 -1.6 29.2 78 -5 23 -90.9 -3.579
10:58 1028 30.36 858 25.34 -1.4 29.6 76 -5 23 -90.9 -3.579
10:59 1028 30.36 857 25.31 -1.1 30 75 -5 23 -90.9 -3.579
11:00 1028 30.36 857 25.31 -0.9 30.3 74 -5 23 -90.8 -3.575
11:01 1028 30.36 857 25.31 -0.8 30.6 73 -5.1 22.9 -90.8 -3.575
11:02 1028 30.36 857 25.31 -0.8 30.6 72 -5.2 22.7 -90.7 -3.571
11:03 1028 30.36 857 25.31 -0.8 30.5 73 -5 22.9 -90.7 -3.571
11:04 1028 30.36 857 25.31 -0.7 30.7 74 -4.8 23.4 -90.7 -3.571
11:05 1028 30.36 857 25.31 -0.4 31.3 73 -4.6 23.7 -90.7 -3.571
11:06 1028 30.36 857 25.31 0 32.1 70 -4.7 23.5 -90.7 -3.571
11:07 1028 30.36 857 25.31 0.2 32.4 69 -4.9 23.2 -90.6 -3.567
11:08 1028 30.36 857 25.31 0.2 32.3 68 -5 23 -90.6 -3.567
11:09 1028 30.36 857 25.31 0.2 32.4 69 -4.8 23.4 -90.5 -3.563
11:10 1028 30.36 857 25.31 0.4 32.7 68 -4.8 23.4 -90.5 -3.563
11:11 1028 30.36 857 25.31 0.5 32.8 67 -4.9 23.1 -90.5 -3.563
11:12 1028 30.36 857 25.31 0.4 32.8 67 -4.9 23.1 -90.4 -3.559
11:13 1028 30.36 857 25.31 0.1 32.2 69 -5 23.1 -90.4 -3.559
11:14 1028 30.36 857 25.31 -0.2 31.7 70 -4.9 23.1 -90.4 -3.559
11:15 1028 30.36 857 25.31 -0.3 31.4 71 -4.9 23.2 -90.4 -3.559
11:16 1028 30.36 857 25.31 -0.2 31.7 72 -4.6 23.8 -90.4 -3.559
11:17 1028 30.36 857 25.31 0.3 32.5 69 -4.7 23.5 -90.5 -3.563
11:18 1028 30.36 857 25.31 0.6 33 68 -4.6 23.7 -90.5 -3.563
11:19 1028 30.36 857 25.31 0.6 33.1 69 -4.4 24.1 -90.6 -3.567
11:20 1028 30.36 857 25.31 0.5 32.9 70 -4.4 24.2 -90.7 -3.571
11:21 1028 30.36 857 25.31 0.3 32.5 71 -4.3 24.2 -90.7 -3.571
11:22 1028 30.36 857 25.31 0.2 32.3 72 -4.3 24.2 -90.8 -3.575
11:23 1028 30.36 857 25.31 -0 32 73 -4.4 24.1 -90.8 -3.575
11:24 1028 30.36 857 25.31 -0.1 31.8 73 -4.4 24 -90.9 -3.579
11:25 1028 30.36 857 25.31 -0.1 31.8 73 -4.4 24 -91 -3.583
11:26 1028 30.36 857 25.31 -0 31.9 72 -4.5 24 -91 -3.583
11:27 1028 30.36 857 25.31 0 32.1 72 -4.4 24.1 -91 -3.583
11:28 1028 30.36 857 25.31 0.1 32.1 72 -4.4 24 -91 -3.583
11:29 1028 30.36 857 25.31 0.1 32.2 72 -4.4 24.1 -91.1 -3.587
11:30 1028 30.36 857 25.31 0 32.1 72 -4.4 24 -91.1 -3.587
11:31 1028 30.36 857 25.31 -0 32 73 -4.3 24.2 -91.2 -3.591
11:32 1028 30.36 857 25.31 -0 32 72 -4.5 23.9 -91.2 -3.591
11:33 1028 30.36 857 25.31 -0.1 31.9 72 -4.6 23.7 -91.2 -3.591
11:34 1028 30.36 857 25.31 -0.2 31.6 72 -4.6 23.6 -91.3 -3.594
11:35 1028 30.36 857 25.31 -0.4 31.2 74 -4.5 23.9 -91.3 -3.594
11:36 1028 30.36 857 25.31 -0.6 30.9 75 -4.5 23.9 -91.4 -3.598
11:37 1028 30.36 857 25.31 -0.6 30.9 75 -4.5 23.9 -91.4 -3.598
11:38 1028 30.36 857 25.31 -0.5 31.1 74 -4.5 23.8 -91.4 -3.598
11:39 1028 30.36 857 25.31 -0.5 31.2 74 -4.5 23.8 -91.4 -3.598
11:40 1028 30.36 857 25.31 -0.5 31.2 74 -4.5 23.9 -91.4 -3.598
11:41 1028 30.36 857 25.31 -0.4 31.2 74 -4.5 23.9 -91.4 -3.598
11:42 1028 30.36 857 25.31 -0.3 31.4 73 -4.6 23.7 -91.4 -3.598
11:43 1028 30.36 857 25.31 -0.2 31.6 73 -4.6 23.8 -91.4 -3.598
11:44 1028 30.36 857 25.31 -0.2 31.7 72 -4.6 23.7 -91.4 -3.598
11:45 1028 30.36 857 25.31 -0.1 31.8 73 -4.5 24 -91.4 -3.598
11:46 1028 30.36 857 25.31 0 32 71 -4.6 23.8 -91.4 -3.598
11:47 1028 30.36 857 25.31 0.2 32.3 71 -4.5 23.9 -91.4 -3.598
11:48 1028 30.36 857 25.31 0.3 32.5 70 -4.5 23.8 -91.4 -3.598
11:49 1028 30.36 857 25.31 0.5 32.8 69 -4.6 23.8 -91.4 -3.598
11:50 1028 30.36 857 25.31 0.6 33 68 -4.6 23.7 -91.4 -3.598
11:51 1028 30.36 857 25.31 0.6 33.1 68 -4.5 23.8 -91.4 -3.598
11:52 1028 30.36 857 25.31 0.6 33.1 69 -4.3 24.2 -91.4 -3.598
11:53 1028 30.36 857 25.31 0.8 33.4 67 -4.6 23.8 -91.4 -3.598
11:54 1028 30.36 857 25.31 0.7 33.2 67 -4.8 23.4 -91.2 -3.591
11:55 1027 30.33 857 25.31 0.4 32.8 68 -4.8 23.3 -90.7 -3.571
11:56 1027 30.33 857 25.31 0.3 32.5 69 -4.7 23.5 -90.4 -3.559
11:57 1027 30.33 857 25.31 0.3 32.5 70 -4.5 23.9 -90.2 -3.551
11:58 1027 30.33 857 25.31 0.4 32.7 70 -4.5 23.9 -90.1 -3.547
11:59 1027 30.33 857 25.31 0.7 33.2 68 -4.5 23.9 -90.1 -3.547
12:00 1027 30.33 857 25.31 1 33.9 66 -4.6 23.7 -90 -3.543
12:01 1027 30.33 857 25.31 1.1 33.9 66 -4.6 23.8 -90 -3.543
12:02 1027 30.33 857 25.31 1.1 33.9 65 -4.7 23.5 -89.9 -3.539
12:03 1027 30.33 856 25.28 1.1 34 65 -4.8 23.4 -89.8 -3.535
12:04 1027 30.33 856 25.28 1.1 33.9 64 -4.9 23.1 -89.8 -3.535
12:05 1027 30.33 856 25.28 1.1 34 64 -4.9 23.3 -89.7 -3.531
12:06 1027 30.33 856 25.28 1.1 34 65 -4.8 23.4 -89.7 -3.531
12:07 1027 30.33 856 25.28 1.2 34.2 66 -4.4 24.1 -89.7 -3.531
12:08 1027 30.33 856 25.28 1.7 35.1 64 -4.3 24.2 -89.7 -3.531
12:09 1027 30.33 856 25.28 2.3 36.1 61 -4.6 23.8 -89.7 -3.531
12:10 1027 30.33 856 25.28 2.8 37.1 59 -4.4 24.1 -89.7 -3.531
12:11 1027 30.33 856 25.28 3.1 37.6 58 -4.2 24.4 -89.7 -3.531
12:12 1027 30.33 856 25.28 2.9 37.2 61 -4 24.8 -89.8 -3.535
12:13 1027 30.33 856 25.28 2.4 36.2 63 -4 24.8 -90 -3.543
12:14 1027 30.33 856 25.28 2 35.6 64 -4 24.8 -90.1 -3.547
12:15 1027 30.33 856 25.28 1.8 35.2 66 -4 24.8 -90.2 -3.551
12:16 1027 30.33 856 25.28 1.6 34.9 66 -4.1 24.6 -90.3 -3.555
12:17 1027 30.33 856 25.28 1.6 34.8 66 -4.1 24.6 -90.4 -3.559
12:18 1027 30.33 856 25.28 1.4 34.4 67 -4 24.7 -90.5 -3.563
12:19 1027 30.33 856 25.28 1 33.9 68 -4.2 24.5 -90.5 -3.563
12:20 1027 30.33 856 25.28 0.9 33.5 69 -4.2 24.4 -90.6 -3.567
12:21 1027 30.33 856 25.28 0.8 33.5 69 -4.2 24.4 -90.6 -3.567
12:22 1027 30.33 856 25.28 0.9 33.7 69 -4.2 24.5 -90.6 -3.567
12:23 1027 30.33 856 25.28 1.2 34.1 67 -4.3 24.3 -90.4 -3.559
12:24 1027 30.33 856 25.28 1.4 34.5 65 -4.4 24.1 -90.1 -3.547
12:25 1027 30.33 856 25.28 1.6 34.8 65 -4.4 24.1 -89.9 -3.539
12:26 1027 30.33 856 25.28 1.7 35 65 -4.3 24.3 -89.9 -3.539
12:27 1027 30.33 856 25.28 1.5 34.8 66 -4.1 24.6 -89.9 -3.539
12:28 1027 30.33 856 25.28 1.6 34.8 66 -4.1 24.5 -89.9 -3.539
12:29 1027 30.33 856 25.28 1.5 34.8 66 -4.1 24.7 -89.9 -3.539
12:30 1027 30.33 856 25.28 1.3 34.4 67 -4 24.8 -89.8 -3.535
12:31 1027 30.33 856 25.28 1.1 34 68 -4.1 24.6 -89.8 -3.535
12:32 1027 30.33 856 25.28 1 33.8 70 -3.9 25 -89.8 -3.535
12:33 1027 30.33 856 25.28 0.9 33.6 70 -4 24.8 -89.8 -3.535
12:34 1027 30.33 856 25.28 0.8 33.5 70 -4 24.8 -89.7 -3.531
12:35 1027 30.33 856 25.28 0.7 33.3 71 -3.9 24.9 -89.6 -3.528
12:36 1027 30.33 856 25.28 0.6 33 72 -3.9 25.1 -89.7 -3.531
12:37 1027 30.33 856 25.28 0.5 32.9 73 -3.9 25 -89.6 -3.528
12:38 1027 30.33 856 25.28 0.4 32.8 73 -3.9 24.9 -89.5 -3.524
12:39 1027 30.33 856 25.28 0.5 32.9 72 -4 24.8 -89.5 -3.524
12:40 1027 30.33 856 25.28 0.6 33.1 72 -3.9 25 -89.5 -3.524
12:41 1027 30.33 856 25.28 0.6 33.1 72 -3.9 25 -89.5 -3.524
12:42 1027 30.33 856 25.28 0.5 32.9 73 -3.8 25.1 -89.6 -3.528
12:43 1027 30.33 856 25.28 0.4 32.7 74 -3.8 25.2 -89.7 -3.531
12:44 1027 30.33 856 25.28 0.4 32.7 73 -3.9 25 -89.7 -3.531
12:45 1027 30.33 856 25.28 0.4 32.8 73 -3.8 25.1 -89.8 -3.535
12:46 1027 30.33 856 25.28 0.5 32.9 73 -3.9 25 -89.7 -3.531
12:47 1027 30.33 856 25.28 0.5 32.8 73 -3.8 25.2 -89.7 -3.531
12:48 1027 30.33 856 25.28 0.5 32.8 74 -3.7 25.4 -89.7 -3.531
12:49 1027 30.33 856 25.28 0.5 32.9 74 -3.6 25.5 -89.7 -3.531
12:50 1027 30.33 856 25.28 0.5 32.8 75 -3.5 25.6 -89.8 -3.535
12:51 1027 30.33 856 25.28 0.4 32.8 74 -3.6 25.6 -89.8 -3.535
12:52 1027 30.33 856 25.28 0.4 32.7 74 -3.7 25.4 -89.8 -3.535
12:53 1027 30.33 856 25.28 0.4 32.6 75 -3.6 25.6 -89.8 -3.535
12:54 1027 30.33 856 25.28 0.4 32.8 75 -3.5 25.7 -89.9 -3.539
12:55 1027 30.33 856 25.28 0.6 33 74 -3.5 25.7 -89.9 -3.539
12:56 1027 30.33 856 25.28 0.7 33.2 73 -3.6 25.5 -89.8 -3.535
12:57 1027 30.33 856 25.28 0.7 33.3 73 -3.5 25.6 -89.8 -3.535
12:58 1027 30.33 856 25.28 0.8 33.4 73 -3.6 25.6 -89.8 -3.535
12:59 1027 30.33 856 25.28 0.9 33.6 72 -3.6 25.6 -89.8 -3.535
13:00 1027 30.33 856 25.28 1.2 34.1 71 -3.5 25.6 -89.7 -3.531
13:01 1027 30.33 856 25.28 1.4 34.4 70 -3.6 25.5 -89.6 -3.528
13:02 1027 30.33 856 25.28 1.4 34.5 70 -3.5 25.7 -89.5 -3.524
13:03 1027 30.33 856 25.28 1.5 34.6 70 -3.4 26 -89.4 -3.52
13:04 1027 30.33 856 25.28 1.6 34.8 69 -3.6 25.6 -89.4 -3.52
13:05 1027 30.33 856 25.28 1.5 34.7 68 -3.8 25.2 -89.4 -3.52
13:06 1027 30.33 856 25.28 1.4 34.5 69 -3.6 25.6 -89.5 -3.524
13:07 1027 30.33 856 25.28 1.4 34.5 70 -3.5 25.7 -89.5 -3.524
13:08 1027 30.33 856 25.28 1.5 34.7 70 -3.4 25.9 -89.6 -3.528
13:09 1027 30.33 856 25.28 1.7 35.1 70 -3.1 26.4 -89.6 -3.528
13:10 1027 30.33 856 25.28 2.1 35.8 65 -3.8 25.1 -89.6 -3.528
13:11 1027 30.33 856 25.28 2.3 36.2 64 -3.8 25.2 -89.6 -3.528
13:12 1027 30.33 856 25.28 2.3 36.1 65 -3.7 25.3 -89.6 -3.528
13:13 1027 30.33 856 25.28 2.3 36.1 65 -3.6 25.5 -89.6 -3.528
13:14 1027 30.33 856 25.28 2.3 36.2 64 -3.7 25.3 -89.6 -3.528
13:15 1027 30.33 856 25.28 2.2 35.9 66 -3.6 25.5 -89.6 -3.528
13:16 1027 30.33 856 25.28 2 35.6 67 -3.6 25.6 -89.6 -3.528
13:17 1027 30.33 856 25.28 1.9 35.4 67 -3.6 25.6 -89.6 -3.528
13:18 1027 30.33 856 25.28 1.8 35.2 67 -3.6 25.5 -89.6 -3.528
13:19 1026 30.3 856 25.28 1.7 35.1 68 -3.6 25.6 -89.6 -3.528
13:20 1026 30.3 856 25.28 1.8 35.3 66 -3.8 25.2 -89.5 -3.524
13:21 1026 30.3 856 25.28 2 35.6 67 -3.6 25.5 -89.4 -3.52
13:22 1026 30.3 856 25.28 2.1 35.8 66 -3.6 25.4 -89.3 -3.516
13:23 1026 30.3 856 25.28 2.1 35.8 66 -3.6 25.6 -89.2 -3.512
13:24 1026 30.3 856 25.28 2.1 35.7 67 -3.4 25.8 -89.2 -3.512
13:25 1026 30.3 856 25.28 2.1 35.8 67 -3.4 25.9 -89.2 -3.512
13:26 1026 30.3 856 25.28 2.1 35.8 67 -3.5 25.8 -89.2 -3.512
13:27 1026 30.3 855 25.25 2.1 35.8 66 -3.5 25.6 -89 -3.504
13:28 1026 30.3 855 25.25 2.1 35.7 67 -3.5 25.7 -89 -3.504
13:29 1026 30.3 855 25.25 2.1 35.7 66 -3.5 25.6 -88.9 -3.5
13:30 1026 30.3 855 25.25 2.1 35.7 67 -3.3 26 -88.9 -3.5
13:31 1026 30.3 855 25.25 2.1 35.8 68 -3.2 26.2 -88.8 -3.496
13:32 1026 30.3 855 25.25 2.1 35.9 68 -3.2 26.3 -88.9 -3.5
13:33 1026 30.3 855 25.25 2.1 35.8 68 -3.3 26.1 -88.9 -3.5
13:34 1026 30.3 855 25.25 1.8 35.3 68 -3.4 25.9 -88.8 -3.496
13:35 1026 30.3 855 25.25 1.5 34.8 68 -3.7 25.4 -88.8 -3.496
13:36 1026 30.3 855 25.25 1.4 34.5 69 -3.6 25.6 -88.7 -3.492
13:37 1026 30.3 855 25.25 1.5 34.6 70 -3.5 25.8 -88.7 -3.492
13:38 1026 30.3 855 25.25 1.5 34.6 70 -3.4 25.8 -88.8 -3.496
13:39 1026 30.3 855 25.25 1.4 34.6 70 -3.4 25.8 -88.8 -3.496
13:40 1026 30.3 855 25.25 1.2 34.2 72 -3.3 26 -88.8 -3.496
13:41 1026 30.3 855 25.25 0.9 33.6 73 -3.3 26 -88.8 -3.496
13:42 1026 30.3 855 25.25 0.6 33.2 74 -3.5 25.7 -88.8 -3.496
13:43 1026 30.3 855 25.25 0.4 32.7 75 -3.6 25.6 -88.7 -3.492
13:44 1026 30.3 855 25.25 0.3 32.5 75 -3.6 25.6 -88.7 -3.492
13:45 1026 30.3 855 25.25 0.3 32.5 75 -3.6 25.4 -88.6 -3.488
13:46 1026 30.3 855 25.25 0.3 32.6 75 -3.6 25.4 -88.6 -3.488
13:47 1026 30.3 855 25.25 0.4 32.7 75 -3.5 25.6 -88.6 -3.488
13:48 1026 30.3 855 25.25 0.5 32.8 74 -3.6 25.6 -88.6 -3.488
13:49 1026 30.3 855 25.25 0.5 32.9 74 -3.5 25.7 -88.6 -3.488
13:50 1026 30.3 855 25.25 0.6 33 73 -3.7 25.4 -88.6 -3.488
13:51 1026 30.3 855 25.25 0.5 33 73 -3.7 25.3 -88.6 -3.488
13:52 1026 30.3 855 25.25 0.6 33.1 74 -3.5 25.7 -88.6 -3.488
13:53 1026 30.3 855 25.25 0.6 33.1 74 -3.5 25.7 -88.6 -3.488
13:54 1026 30.3 855 25.25 0.7 33.2 74 -3.4 25.8 -88.6 -3.488
13:55 1026 30.3 855 25.25 0.7 33.3 74 -3.5 25.8 -88.6 -3.488
13:56 1026 30.3 855 25.25 0.7 33.3 73 -3.6 25.6 -88.5 -3.484
13:57 1026 30.3 855 25.25 0.6 33.2 73 -3.6 25.6 -88.5 -3.484
13:58 1026 30.3 855 25.25 0.5 32.9 74 -3.6 25.6 -88.5 -3.484
13:59 1026 30.3 855 25.25 0.4 32.7 75 -3.6 25.6 -88.5 -3.484
14:00 1026 30.3 855 25.25 0.4 32.6 75 -3.5 25.7 -88.4 -3.48
14:01 1026 30.3 855 25.25 0.4 32.7 75 -3.6 25.6 -88.4 -3.48
14:02 1025 30.27 855 25.25 0.4 32.7 75 -3.6 25.5 -88.3 -3.476
14:03 1025 30.27 855 25.25 0.5 32.8 75 -3.5 25.8 -88.3 -3.476
14:04 1025 30.27 855 25.25 0.6 33.1 74 -3.6 25.6 -88.2 -3.472
14:05 1025 30.27 855 25.25 0.6 33 73 -3.6 25.4 -88.2 -3.472
14:06 1025 30.27 855 25.25 0.5 32.9 74 -3.7 25.4 -88.2 -3.472
14:07 1025 30.27 854 25.22 0.3 32.6 75 -3.7 25.4 -88.2 -3.472
14:08 1025 30.27 854 25.22 0.2 32.3 75 -3.7 25.3 -88.2 -3.472
14:09 1025 30.27 854 25.22 0 32.1 75 -3.8 25.1 -88.2 -3.472
14:10 1025 30.27 854 25.22 -0.2 31.6 76 -3.9 25 -88.2 -3.472
14:11 1025 30.27 854 25.22 -0.3 31.4 77 -3.9 25 -88.3 -3.476
14:12 1025 30.27 854 25.22 -0.4 31.3 77 -4 24.9 -88.3 -3.476
14:13 1025 30.27 854 25.22 -0.5 31.1 78 -3.9 25 -88.3 -3.476
14:14 1025 30.27 854 25.22 -0.5 31.1 78 -3.9 25.1 -88.3 -3.476
14:15 1025 30.27 854 25.22 -0.5 31.2 78 -3.9 25 -88.3 -3.476
14:16 1025 30.27 854 25.22 -0.3 31.4 77 -3.8 25.1 -88.3 -3.476
14:17 1025 30.27 854 25.22 -0.3 31.4 77 -3.9 25 -88.4 -3.48
14:18 1025 30.27 854 25.22 -0.5 31.2 77 -4 24.7 -88.4 -3.48
14:19 1025 30.27 854 25.22 -0.7 30.7 78 -4 24.7 -88.4 -3.48
14:20 1025 30.27 854 25.22 -0.8 30.6 78 -4.1 24.6 -88.4 -3.48
14:21 1025 30.27 854 25.22 -0.9 30.4 78 -4.2 24.4 -88.4 -3.48
14:22 1025 30.27 854 25.22 -0.9 30.3 78 -4.3 24.3 -88.4 -3.48
14:23 1024 30.24 854 25.22 -1 30.2 78 -4.3 24.3 -88.4 -3.48
14:24 1024 30.24 854 25.22 -0.8 30.5 77 -4.3 24.2 -88.4 -3.48
14:25 1024 30.24 854 25.22 -0.6 30.9 76 -4.3 24.2 -88.4 -3.48
14:26 1024 30.24 854 25.22 -0.5 31.1 76 -4.2 24.4 -88.5 -3.484
14:27 1024 30.24 854 25.22 -0.5 31 75 -4.3 24.2 -88.5 -3.484
14:28 1024 30.24 854 25.22 -0.7 30.7 76 -4.4 24.1 -88.5 -3.484
14:29 1024 30.24 854 25.22 -1 30.2 77 -4.5 24 -88.6 -3.488
14:30 1024 30.24 854 25.22 -1 30.1 78 -4.4 24 -88.6 -3.488
14:31 1024 30.24 854 25.22 -1.1 30.1 78 -4.5 24 -88.6 -3.488
14:32 1024 30.24 854 25.22 -1 30.2 77 -4.5 23.9 -88.6 -3.488
14:33 1024 30.24 853 25.19 -1 30.3 77 -4.5 23.9 -88.6 -3.488
14:34 1024 30.24 853 25.19 -1.1 30 78 -4.5 23.9 -88.7 -3.492
14:35 1024 30.24 853 25.19 -1.2 29.9 77 -4.6 23.7 -88.7 -3.492
14:36 1024 30.24 854 25.22 -1.2 29.8 78 -4.5 23.9 -88.7 -3.492
14:37 1024 30.24 853 25.19 -1.1 30.1 78 -4.4 24 -88.7 -3.492
14:38 1024 30.24 853 25.19 -0.9 30.4 77 -4.4 24 -88.7 -3.492
14:39 1024 30.24 854 25.22 -0.7 30.7 76 -4.4 24.1 -88.7 -3.492
14:40 1024 30.24 854 25.22 -0.6 30.8 75 -4.6 23.7 -88.8 -3.496
14:41 1024 30.24 854 25.22 -0.7 30.7 76 -4.4 24.1 -88.8 -3.496
14:42 1024 30.24 854 25.22 -0.6 30.9 76 -4.3 24.3 -88.9 -3.5
14:43 1024 30.24 854 25.22 -0.5 31.1 75 -4.3 24.2 -88.9 -3.5
14:44 1024 30.24 854 25.22 -0.4 31.3 75 -4.4 24.1 -88.9 -3.5
14:45 1024 30.24 854 25.22 -0.3 31.4 73 -4.6 23.6 -88.9 -3.5
14:46 1024 30.24 854 25.22 -0.4 31.3 73 -4.6 23.7 -88.9 -3.5
14:47 1024 30.24 854 25.22 -0.5 31.1 74 -4.5 23.8 -88.9 -3.5
14:48 1024 30.24 854 25.22 -0.6 30.9 74 -4.7 23.6 -88.9 -3.5
14:49 1024 30.24 854 25.22 -0.8 30.6 75 -4.6 23.6 -88.9 -3.5
14:50 1024 30.24 854 25.22 -0.7 30.7 75 -4.7 23.6 -88.9 -3.5
14:51 1024 30.24 854 25.22 -0.7 30.8 74 -4.7 23.6 -88.9 -3.5
14:52 1024 30.24 854 25.22 -0.7 30.8 74 -4.7 23.6 -89 -3.504
14:53 1024 30.24 854 25.22 -0.7 30.7 75 -4.6 23.7 -89 -3.504
14:54 1024 30.24 854 25.22 -0.8 30.6 76 -4.5 23.8 -89 -3.504
14:55 1024 30.24 854 25.22 -0.7 30.7 75 -4.5 23.8 -89 -3.504
14:56 1024 30.24 854 25.22 -0.7 30.7 75 -4.5 23.8 -89 -3.504
14:57 1024 30.24 854 25.22 -0.7 30.7 76 -4.5 23.9 -89 -3.504
14:58 1024 30.24 854 25.22 -0.7 30.7 76 -4.4 24 -89 -3.504
14:59 1024 30.24 854 25.22 -0.6 30.9 76 -4.4 24 -89 -3.504
15:00 1024 30.24 854 25.22 -0.4 31.2 75 -4.3 24.2 -88.9 -3.5
15:01 1024 30.24 854 25.22 -0.3 31.5 74 -4.3 24.2 -89 -3.504
15:02 1024 30.24 854 25.22 -0.2 31.6 74 -4.2 24.4 -89 -3.504
15:03 1024 30.24 854 25.22 -0.2 31.7 74 -4.2 24.4 -89 -3.504
15:04 1024 30.24 854 25.22 -0.1 31.9 74 -4.2 24.5 -89 -3.504
15:05 1024 30.24 854 25.22 0 32.1 73 -4.2 24.4 -89 -3.504
15:06 1024 30.24 854 25.22 0.1 32.1 73 -4.2 24.5 -89 -3.504
15:07 1025 30.27 854 25.22 0.2 32.3 73 -4.1 24.5 -89 -3.504
15:08 1025 30.27 854 25.22 0.3 32.5 73 -4.1 24.7 -89 -3.504
15:09 1025 30.27 854 25.22 0.4 32.8 73 -3.9 25 -89.1 -3.508
15:10 1025 30.27 854 25.22 0.6 33.1 72 -3.9 25 -89.1 -3.508
15:11 1025 30.27 854 25.22 0.9 33.6 71 -3.7 25.3 -89.1 -3.508
15:12 1025 30.27 854 25.22 1 33.8 70 -3.9 24.9 -89.1 -3.508
15:13 1025 30.27 854 25.22 1.2 34.2 68 -4 24.8 -89.2 -3.512
15:14 1025 30.27 854 25.22 1.4 34.5 68 -3.9 25 -89.2 -3.512
15:15 1025 30.27 854 25.22 1.5 34.7 70 -3.4 25.8 -89.2 -3.512
15:16 1025 30.27 854 25.22 1.3 34.3 70 -3.6 25.5 -89.2 -3.512
15:17 1025 30.27 854 25.22 1.1 33.9 72 -3.5 25.7 -89.2 -3.512
15:18 1025 30.27 854 25.22 1 33.7 72 -3.4 25.8 -89.2 -3.512
15:19 1025 30.27 854 25.22 0.9 33.5 73 -3.5 25.7 -89.2 -3.512
15:20 1025 30.27 854 25.22 0.9 33.6 72 -3.5 25.6 -89.2 -3.512
15:21 1025 30.27 854 25.22 1 33.8 72 -3.5 25.7 -89.2 -3.512
15:22 1025 30.27 854 25.22 1 33.8 72 -3.4 25.8 -89.1 -3.508
15:23 1025 30.27 854 25.22 1 33.7 73 -3.3 26 -89.1 -3.508
15:24 1025 30.27 854 25.22 0.9 33.5 73 -3.4 25.8 -89.1 -3.508
15:25 1025 30.27 854 25.22 0.7 33.3 73 -3.5 25.7 -89.1 -3.508
15:26 1025 30.27 854 25.22 0.6 33.1 74 -3.6 25.5 -89.2 -3.512
15:27 1025 30.27 854 25.22 0.5 32.8 74 -3.7 25.3 -89.1 -3.508
15:28 1025 30.27 854 25.22 0.3 32.6 74 -3.8 25.2 -89.1 -3.508
15:29 1025 30.27 854 25.22 0.1 32.2 75 -3.8 25.1 -89.1 -3.508
15:30 1025 30.27 854 25.22 -0.1 31.8 76 -3.8 25.2 -89.1 -3.508
15:31 1025 30.27 854 25.22 -0.2 31.6 77 -3.8 25.1 -89.1 -3.508
15:32 1025 30.27 854 25.22 -0.1 31.7 76 -4 24.9 -89.1 -3.508
15:33 1025 30.27 854 25.22 -0 31.9 75 -4 24.8 -89 -3.504
15:34 1025 30.27 854 25.22 0.1 32.1 75 -3.9 24.9 -89 -3.504
15:35 1025 30.27 854 25.22 0.1 32.2 75 -3.9 25 -89 -3.504
15:36 1025 30.27 854 25.22 -0.1 31.8 76 -3.9 25 -89 -3.504
15:37 1025 30.27 854 25.22 -0.3 31.5 77 -3.9 25 -89 -3.504
15:38 1025 30.27 854 25.22 -0.3 31.5 76 -4 24.9 -89 -3.504
15:39 1025 30.27 854 25.22 -0.2 31.6 76 -4 24.9 -89 -3.504
15:40 1025 30.27 854 25.22 -0.2 31.7 76 -4 24.8 -89 -3.504
15:41 1025 30.27 854 25.22 -0.1 31.8 75 -4 24.7 -89 -3.504
15:42 1025 30.27 854 25.22 0.1 32.1 74 -4 24.8 -89 -3.504
15:43 1025 30.27 854 25.22 0.2 32.3 74 -4 24.8 -89 -3.504
15:44 1025 30.27 854 25.22 0 32 74 -4 24.8 -89 -3.504
15:45 1025 30.27 854 25.22 -0.2 31.6 76 -4 24.8 -89 -3.504
15:46 1025 30.27 854 25.22 -0.5 31.1 77 -4.1 24.6 -89 -3.504
15:47 1025 30.27 854 25.22 -0.7 30.8 78 -4 24.8 -89 -3.504
15:48 1025 30.27 854 25.22 -0.6 31 77 -4.1 24.7 -89 -3.504
15:49 1025 30.27 854 25.22 -0.5 31.1 77 -4.1 24.7 -89 -3.504
15:50 1025 30.27 854 25.22 -0.7 30.8 78 -4.1 24.7 -89 -3.504
15:51 1025 30.27 854 25.22 -0.9 30.4 79 -4 24.7 -89.1 -3.508
15:52 1025 30.27 854 25.22 -1.2 29.9 80 -4.2 24.4 -89.1 -3.508
15:53 1025 30.27 854 25.22 -1.3 29.6 82 -4.1 24.7 -89.1 -3.508
15:54 1025 30.27 854 25.22 -1.2 29.8 81 -4 24.7 -89.1 -3.508
15:55 1025 30.27 854 25.22 -1.2 29.9 80 -4.1 24.5 -89.1 -3.508
15:56 1025 30.27 854 25.22 -1.2 29.8 81 -4.1 24.6 -89.1 -3.508
15:57 1025 30.27 854 25.22 -1.2 29.8 82 -4 24.9 -89.2 -3.512
15:58 1025 30.27 854 25.22 -1.2 29.9 82 -3.8 25.1 -89.2 -3.512
15:59 1025 30.27 854 25.22 -1 30.2 81 -3.9 25 -89.2 -3.512
16:00 1024 30.24 854 25.22 -0.8 30.5 80 -3.9 25 -89.2 -3.512
16:01 1024 30.24 854 25.22 -0.9 30.3 80 -3.9 25 -89.2 -3.512
16:02 1024 30.24 853 25.19 -0.9 30.4 80 -3.9 25 -89.2 -3.512
16:03 1024 30.24 854 25.22 -0.8 30.6 80 -3.9 25 -89.2 -3.512
16:04 1024 30.24 854 25.22 -0.8 30.5 80 -3.9 25 -89.2 -3.512
16:05 1024 30.24 854 25.22 -0.9 30.4 81 -3.8 25.2 -89.2 -3.512
16:06 1024 30.24 853 25.19 -0.8 30.5 80 -3.8 25.1 -89.2 -3.512
16:07 1024 30.24 853 25.19 -0.9 30.4 80 -3.9 24.9 -89.2 -3.512
16:08 1024 30.24 853 25.19 -1 30.2 81 -3.9 25.1 -89.2 -3.512
16:09 1024 30.24 853 25.19 -1 30.1 81 -3.9 25 -89.2 -3.512
16:10 1024 30.24 853 25.19 -1 30.3 80 -3.9 24.9 -89.3 -3.516
16:11 1024 30.24 853 25.19 -1 30.2 81 -3.9 24.9 -89.3 -3.516
16:12 1024 30.24 853 25.19 -1 30.2 82 -3.7 25.3 -89.3 -3.516
16:13 1024 30.24 853 25.19 -0.9 30.4 81 -3.8 25.1 -89.3 -3.516
16:14 1024 30.24 853 25.19 -0.8 30.6 81 -3.7 25.3 -89.3 -3.516
16:15 1024 30.24 853 25.19 -0.6 30.9 80 -3.7 25.4 -89.4 -3.52
16:16 1024 30.24 853 25.19 -0.5 31.1 80 -3.6 25.5 -89.4 -3.52
16:17 1024 30.24 853 25.19 -0.4 31.2 79 -3.6 25.5 -89.4 -3.52
16:18 1024 30.24 853 25.19 -0.4 31.2 79 -3.7 25.4 -89.4 -3.52
16:19 1024 30.24 853 25.19 -0.5 31 79 -3.7 25.3 -89.5 -3.524
16:20 1024 30.24 853 25.19 -0.6 30.9 79 -3.8 25.2 -89.5 -3.524
16:21 1024 30.24 853 25.19 -0.7 30.7 80 -3.8 25.1 -89.4 -3.52
16:22 1024 30.24 853 25.19 -0.8 30.5 81 -3.7 25.3 -89.4 -3.52
16:23 1024 30.24 853 25.19 -0.8 30.6 81 -3.6 25.5 -89.4 -3.52
16:24 1024 30.24 853 25.19 -0.7 30.7 81 -3.6 25.6 -89.4 -3.52
16:25 1024 30.24 853 25.19 -0.6 30.9 81 -3.5 25.6 -89.4 -3.52
16:26 1024 30.24 853 25.19 -0.6 31 81 -3.5 25.7 -89.4 -3.52
16:27 1024 30.24 853 25.19 -0.4 31.3 80 -3.5 25.7 -89.4 -3.52
16:28 1024 30.24 853 25.19 -0.4 31.2 79 -3.6 25.6 -89.4 -3.52
16:29 1024 30.24 853 25.19 -0.5 31.1 79 -3.7 25.4 -89.4 -3.52
16:30 1024 30.24 853 25.19 -0.6 30.9 80 -3.5 25.6 -89.4 -3.52
16:31 1024 30.24 853 25.19 -0.5 31 80 -3.5 25.7 -89.4 -3.52
16:32 1024 30.24 853 25.19 -0.5 31.1 81 -3.5 25.8 -89.4 -3.52
16:33 1024 30.24 853 25.19 -0.5 31.1 80 -3.5 25.7 -89.5 -3.524
16:34 1024 30.24 853 25.19 -0.5 31 80 -3.5 25.7 -89.5 -3.524
16:35 1024 30.24 853 25.19 -0.5 31 80 -3.6 25.6 -89.5 -3.524
16:36 1024 30.24 853 25.19 -0.7 30.8 80 -3.7 25.4 -89.5 -3.524
16:37 1024 30.24 853 25.19 -0.8 30.6 81 -3.6 25.5 -89.5 -3.524
16:38 1024 30.24 853 25.19 -0.8 30.6 81 -3.7 25.4 -89.5 -3.524
16:39 1024 30.24 853 25.19 -0.7 30.7 80 -3.7 25.3 -89.5 -3.524
16:40 1024 30.24 853 25.19 -0.9 30.5 80 -3.8 25.1 -89.5 -3.524
16:41 1024 30.24 853 25.19 -1 30.1 81 -3.8 25.1 -89.5 -3.524
16:42 1024 30.24 853 25.19 -1.2 29.8 83 -3.7 25.4 -89.5 -3.524
16:43 1024 30.24 853 25.19 -1.1 29.9 84 -3.6 25.6 -89.5 -3.524
16:44 1024 30.24 853 25.19 -1 30.2 83 -3.5 25.7 -89.5 -3.524
16:45 1024 30.24 853 25.19 -0.8 30.5 82 -3.5 25.8 -89.5 -3.524
16:46 1024 30.24 853 25.19 -0.6 30.8 82 -3.3 26 -89.6 -3.528
16:47 1024 30.24 853 25.19 -0.6 30.9 81 -3.4 25.9 -89.6 -3.528
16:48 1024 30.24 853 25.19 -0.5 31.1 82 -3.3 26.1 -89.6 -3.528
16:49 1024 30.24 853 25.19 -0.4 31.2 81 -3.3 26 -89.6 -3.528
16:50 1024 30.24 853 25.19 -0.5 31.2 82 -3.2 26.2 -89.6 -3.528
16:51 1024 30.24 853 25.19 -0.4 31.2 81 -3.2 26.2 -89.6 -3.528
16:52 1024 30.24 853 25.19 -0.4 31.4 82 -3.1 26.4 -89.6 -3.528
16:53 1024 30.24 853 25.19 -0.2 31.6 81 -3.1 26.4 -89.6 -3.528
16:54 1024 30.24 853 25.19 -0 31.9 81 -3 26.7 -89.6 -3.528
16:55 1024 30.24 853 25.19 0.2 32.4 79 -3 26.6 -89.6 -3.528
16:56 1024 30.24 853 25.19 0.6 33 77 -3 26.6 -89.6 -3.528
16:57 1024 30.24 853 25.19 0.8 33.5 76 -3 26.6 -89.6 -3.528
16:58 1024 30.24 853 25.19 0.8 33.4 76 -2.9 26.7 -89.6 -3.528
16:59 1024 30.24 853 25.19 0.5 32.8 78 -3 26.7 -89.6 -3.528
17:00 1024 30.24 853 25.19 0.3 32.5 79 -3 26.6 -89.6 -3.528
17:01 1024 30.24 853 25.19 0.1 32.2 80 -3 26.6 -89.6 -3.528
17:02 1024 30.24 853 25.19 0 32.1 80 -3 26.5 -89.6 -3.528
17:03 1024 30.24 853 25.19 -0 32 80 -3 26.5 -89.6 -3.528
17:04 1024 30.24 853 25.19 -0.1 31.7 81 -3 26.7 -89.6 -3.528
17:05 1024 30.24 853 25.19 -0.2 31.6 81 -3.1 26.5 -89.6 -3.528
17:06 1024 30.24 853 25.19 -0.4 31.3 83 -3 26.7 -89.6 -3.528
17:07 1024 30.24 853 25.19 -0.4 31.2 83 -2.9 26.7 -89.6 -3.528
17:08 1024 30.24 853 25.19 -0.4 31.2 84 -2.9 26.8 -89.7 -3.531
17:09 1024 30.24 853 25.19 -0.3 31.4 83 -2.8 27 -89.7 -3.531
17:10 1024 30.24 853 25.19 -0.2 31.6 83 -2.7 27.2 -89.7 -3.531
17:11 1024 30.24 853 25.19 -0.2 31.7 83 -2.7 27.2 -89.7 -3.531
17:12 1024 30.24 853 25.19 -0.2 31.6 83 -2.7 27.1 -89.7 -3.531
17:13 1024 30.24 853 25.19 -0.3 31.5 84 -2.7 27.2 -89.7 -3.531
17:14 1024 30.24 853 25.19 -0.3 31.5 84 -2.7 27.2 -89.7 -3.531
17:15 1024 30.24 853 25.19 -0.2 31.6 83 -2.7 27.1 -89.7 -3.531
17:16 1024 30.24 853 25.19 -0.3 31.5 83 -2.7 27.1 -89.7 -3.531
17:17 1024 30.24 853 25.19 -0.3 31.5 84 -2.6 27.3 -89.7 -3.531
17:18 1024 30.24 853 25.19 -0.1 31.8 84 -2.5 27.5 -89.7 -3.531
17:19 1024 30.24 853 25.19 -0 32 84 -2.3 27.8 -89.7 -3.531
17:20 1024 30.24 853 25.19 0 32.1 84 -2.3 27.8 -89.7 -3.531
17:21 1024 30.24 853 25.19 0.2 32.4 83 -2.3 27.9 -89.7 -3.531
17:22 1024 30.24 853 25.19 0.2 32.4 82 -2.5 27.5 -89.7 -3.531
17:23 1024 30.24 853 25.19 0.4 32.7 81 -2.5 27.4 -89.7 -3.531
17:24 1024 30.24 853 25.19 0.5 32.9 82 -2.3 27.9 -89.7 -3.531
17:25 1024 30.24 853 25.19 0.6 33.1 81 -2.3 27.9 -89.7 -3.531
17:26 1024 30.24 853 25.19 0.8 33.4 81 -2.2 28.1 -89.7 -3.531
17:27 1024 30.24 853 25.19 0.9 33.5 80 -2.2 28.1 -89.7 -3.531
17:28 1024 30.24 853 25.19 1 33.8 81 -1.9 28.5 -89.7 -3.531
17:29 1024 30.24 853 25.19 1.2 34.1 81 -1.8 28.8 -89.7 -3.531
17:30 1024 30.24 853 25.19 1.3 34.3 80 -1.8 28.8 -89.7 -3.531
17:31 1024 30.24 853 25.19 1.4 34.5 80 -1.8 28.8 -89.7 -3.531
17:32 1024 30.24 853 25.19 1.5 34.7 77 -2.2 28.1 -89.7 -3.531
17:33 1024 30.24 853 25.19 1.6 34.9 74 -2.5 27.5 -89.7 -3.531
17:34 1024 30.24 853 25.19 1.5 34.6 75 -2.5 27.5 -89.7 -3.531
17:35 1024 30.24 853 25.19 1.4 34.5 77 -2.2 28.1 -89.7 -3.531
17:36 1024 30.24 853 25.19 1.6 34.8 74 -2.6 27.2 -89.7 -3.531
17:37 1024 30.24 853 25.19 1.6 34.9 74 -2.5 27.5 -89.7 -3.531
17:38 1024 30.24 853 25.19 1.7 35.1 75 -2.3 27.8 -89.7 -3.531
17:39 1024 30.24 853 25.19 1.8 35.3 74 -2.3 27.8 -89.7 -3.531
17:40 1023 30.21 853 25.19 2 35.6 71 -2.7 27.2 -89.7 -3.531
17:41 1023 30.21 853 25.19 1.8 35.3 73 -2.6 27.4 -89.7 -3.531
17:42 1023 30.21 853 25.19 1.5 34.6 73 -2.8 26.9 -89.7 -3.531
17:43 1023 30.21 853 25.19 1 33.8 73 -3.2 26.2 -89.7 -3.531
17:44 1023 30.21 853 25.19 0.6 33.1 79 -2.7 27.2 -89.7 -3.531
17:45 1023 30.21 853 25.19 0.6 33 78 -2.7 27.1 -89.7 -3.531
17:46 1023 30.21 853 25.19 0.5 33 78 -2.8 26.9 -89.7 -3.531
17:47 1023 30.21 853 25.19 0.5 32.8 78 -3 26.7 -89.7 -3.531
17:48 1023 30.21 853 25.19 0.3 32.6 78 -3 26.6 -89.7 -3.531
17:49 1023 30.21 853 25.19 0.2 32.3 78 -3.2 26.2 -89.7 -3.531
17:50 1023 30.21 853 25.19 0.1 32.2 79 -3.2 26.3 -89.7 -3.531
17:51 1023 30.21 853 25.19 0.1 32.2 80 -2.9 26.8 -89.7 -3.531
17:52 1023 30.21 853 25.19 0.1 32.3 80 -2.9 26.9 -89.7 -3.531
17:53 1023 30.21 853 25.19 0.2 32.4 79 -3 26.7 -89.7 -3.531
17:54 1023 30.21 853 25.19 0.2 32.4 78 -3.1 26.5 -89.7 -3.531
17:55 1023 30.21 853 25.19 0.3 32.5 79 -3 26.6 -89.7 -3.531
17:56 1023 30.21 853 25.19 0.3 32.6 78 -3 26.5 -89.7 -3.531
17:57 1023 30.21 853 25.19 0.4 32.8 77 -3.1 26.4 -89.7 -3.531
17:58 1023 30.21 853 25.19 0.5 32.8 78 -3 26.6 -89.7 -3.531
17:59 1023 30.21 853 25.19 0.5 33 77 -3 26.6 -89.7 -3.531
18:00 1023 30.21 853 25.19 0.7 33.3 77 -2.9 26.7 -89.7 -3.531
18:01 1023 30.21 853 25.19 0.9 33.5 76 -2.8 26.9 -89.7 -3.531
18:02 1023 30.21 853 25.19 1 33.9 75 -2.9 26.8 -89.7 -3.531
18:03 1023 30.21 853 25.19 1.2 34.1 74 -2.9 26.7 -89.7 -3.531
18:04 1023 30.21 853 25.19 1.2 34.2 74 -2.9 26.8 -89.7 -3.531
18:05 1023 30.21 853 25.19 1.3 34.3 73 -3 26.6 -89.7 -3.531
18:06 1023 30.21 853 25.19 1.1 33.9 73 -3.3 26.1 -89.7 -3.531
18:07 1023 30.21 853 25.19 0.9 33.6 74 -3.2 26.2 -89.7 -3.531
18:08 1023 30.21 853 25.19 0.8 33.4 75 -3.2 26.2 -89.7 -3.531
18:09 1023 30.21 852 25.16 0.9 33.6 77 -2.8 27 -89.7 -3.531
18:10 1023 30.21 852 25.16 1.3 34.3 75 -2.7 27.2 -89.7 -3.531
18:11 1023 30.21 852 25.16 1.6 35 73 -2.7 27.1 -89.7 -3.531
18:12 1023 30.21 852 25.16 1.8 35.2 71 -2.9 26.7 -89.7 -3.531
18:13 1023 30.21 852 25.16 1.3 34.3 71 -3.3 26 -89.7 -3.531
18:14 1023 30.21 852 25.16 0.6 33.2 77 -2.9 26.9 -89.7 -3.531
18:15 1023 30.21 852 25.16 0.6 33 76 -3.2 26.3 -89.7 -3.531
18:16 1023 30.21 852 25.16 0.4 32.8 80 -2.7 27.2 -89.7 -3.531
18:17 1023 30.21 852 25.16 0.6 33.1 78 -2.8 27 -89.7 -3.531
18:18 1023 30.21 852 25.16 0.8 33.4 78 -2.6 27.3 -89.7 -3.531
18:19 1023 30.21 852 25.16 1 33.9 75 -3 26.6 -89.7 -3.531
18:20 1023 30.21 852 25.16 0.9 33.7 74 -3.1 26.4 -89.7 -3.531
18:21 1023 30.21 853 25.19 0.6 33.1 78 -2.8 27 -89.7 -3.531
18:22 1023 30.21 853 25.19 0.5 33 79 -2.6 27.3 -89.7 -3.531
18:23 1023 30.21 853 25.19 0.6 33.1 78 -2.7 27.1 -89.7 -3.531
18:24 1023 30.21 853 25.19 0.5 32.9 78 -2.8 26.9 -89.7 -3.531
18:25 1023 30.21 853 25.19 0.3 32.6 80 -2.7 27.1 -89.7 -3.531
18:26 1023 30.21 853 25.19 0.3 32.5 80 -2.8 27 -89.7 -3.531
18:27 1023 30.21 853 25.19 0.7 33.2 78 -2.8 26.9 -89.7 -3.531
18:28 1023 30.21 853 25.19 0.8 33.4 77 -2.8 26.9 -89.7 -3.531
18:29 1023 30.21 853 25.19 0.8 33.4 77 -2.8 27 -89.7 -3.531
18:30 1023 30.21 853 25.19 0.8 33.5 78 -2.6 27.3 -89.7 -3.531
18:31 1023 30.21 853 25.19 0.9 33.6 77 -2.7 27.2 -89.7 -3.531
18:32 1023 30.21 852 25.16 1 33.8 77 -2.5 27.5 -89.7 -3.531
18:33 1023 30.21 852 25.16 1.1 34 76 -2.6 27.4 -89.7 -3.531
18:34 1023 30.21 852 25.16 1.2 34.2 75 -2.6 27.2 -89.7 -3.531
18:35 1023 30.21 852 25.16 1.2 34.2 75 -2.7 27.1 -89.7 -3.531
18:36 1023 30.21 852 25.16 1.1 34 76 -2.6 27.3 -89.7 -3.531
18:37 1023 30.21 852 25.16 0.9 33.7 78 -2.5 27.4 -89.7 -3.531
18:38 1023 30.21 852 25.16 1 33.8 77 -2.6 27.4 -89.7 -3.531
18:39 1023 30.21 852 25.16 1 33.8 77 -2.7 27.2 -89.8 -3.535
18:40 1023 30.21 852 25.16 0.9 33.6 77 -2.6 27.3 -89.8 -3.535
18:41 1023 30.21 852 25.16 0.7 33.3 78 -2.7 27.1 -89.7 -3.531
18:42 1023 30.21 852 25.16 0.6 33 79 -2.7 27.1 -89.7 -3.531
18:43 1023 30.21 852 25.16 0.4 32.7 79 -2.8 27 -89.7 -3.531
18:44 1023 30.21 852 25.16 0.2 32.4 80 -2.8 26.9 -89.7 -3.531
18:45 1023 30.21 852 25.16 0.1 32.1 81 -2.9 26.8 -89.7 -3.531
18:46 1023 30.21 852 25.16 -0.1 31.9 82 -2.8 26.9 -89.7 -3.531
18:47 1023 30.21 852 25.16 -0.1 31.9 82 -2.8 27 -89.7 -3.531
18:48 1023 30.21 852 25.16 -0 32 81 -2.8 26.9 -89.7 -3.531
18:49 1023 30.21 852 25.16 -0.1 31.9 80 -3 26.5 -89.7 -3.531
18:50 1023 30.21 852 25.16 -0.2 31.6 83 -2.8 27 -89.7 -3.531
18:51 1023 30.21 852 25.16 -0.2 31.6 84 -2.5 27.4 -89.7 -3.531
18:52 1023 30.21 852 25.16 0 32.1 83 -2.5 27.4 -89.7 -3.531
18:53 1023 30.21 852 25.16 0.3 32.5 82 -2.5 27.5 -89.7 -3.531
18:54 1023 30.21 852 25.16 0.4 32.8 81 -2.5 27.5 -89.7 -3.531
18:55 1023 30.21 852 25.16 0.5 32.9 80 -2.5 27.5 -89.7 -3.531
18:56 1023 30.21 852 25.16 0.5 32.9 80 -2.6 27.3 -89.7 -3.531
18:57 1023 30.21 852 25.16 0.4 32.8 81 -2.5 27.5 -89.8 -3.535
18:58 1023 30.21 852 25.16 0.4 32.8 81 -2.5 27.6 -89.8 -3.535
18:59 1023 30.21 852 25.16 0.4 32.7 81 -2.5 27.5 -89.8 -3.535
19:00 1023 30.21 852 25.16 0.4 32.7 81 -2.5 27.5 -89.7 -3.531
19:01 1023 30.21 852 25.16 0.4 32.6 81 -2.5 27.5 -89.7 -3.531
19:02 1023 30.21 852 25.16 0.5 32.9 80 -2.6 27.4 -89.7 -3.531
19:03 1023 30.21 852 25.16 0.6 33.1 80 -2.5 27.6 -89.7 -3.531
19:04 1023 30.21 852 25.16 0.6 33 80 -2.5 27.6 -89.7 -3.531
19:05 1022 30.18 852 25.16 0.6 33 80 -2.5 27.5 -89.7 -3.531
19:06 1022 30.18 852 25.16 0.7 33.2 79 -2.6 27.4 -89.7 -3.531
19:07 1023 30.21 852 25.16 0.6 33.1 79 -2.5 27.4 -89.7 -3.531
19:08 1022 30.18 852 25.16 0.7 33.3 79 -2.5 27.5 -89.7 -3.531
19:09 1022 30.18 852 25.16 0.7 33.3 78 -2.7 27.2 -89.7 -3.531
19:10 1022 30.18 852 25.16 0.5 32.9 79 -2.8 27 -89.8 -3.535
19:11 1022 30.18 851 25.13 0.5 32.8 79 -2.7 27.1 -89.8 -3.535
19:12 1022 30.18 852 25.16 0.5 32.9 78 -2.9 26.8 -89.8 -3.535
19:13 1022 30.18 852 25.16 0.6 33.1 77 -3 26.6 -89.8 -3.535
19:14 1022 30.18 852 25.16 0.9 33.5 75 -3.1 26.4 -89.8 -3.535
19:15 1022 30.18 852 25.16 0.9 33.6 75 -3.1 26.4 -89.8 -3.535
19:16 1022 30.18 851 25.13 1.1 34 73 -3.2 26.2 -89.8 -3.535
19:17 1022 30.18 851 25.13 1.2 34.1 74 -2.9 26.8 -89.8 -3.535
19:18 1022 30.18 851 25.13 1.2 34.2 71 -3.4 25.9 -89.8 -3.535
19:19 1022 30.18 851 25.13 1.7 35.1 68 -3.5 25.8 -89.8 -3.535
19:20 1022 30.18 851 25.13 1.8 35.3 70 -3.1 26.4 -89.8 -3.535
19:21 1022 30.18 851 25.13 1.6 34.9 71 -3.1 26.4 -89.7 -3.531
19:22 1022 30.18 852 25.16 1.4 34.6 71 -3.2 26.3 -89.7 -3.531
19:23 1022 30.18 852 25.16 1.2 34.2 72 -3.2 26.2 -89.7 -3.531
19:24 1022 30.18 852 25.16 1.2 34.2 72 -3.3 26 -89.7 -3.531
19:25 1022 30.18 852 25.16 1.1 33.9 72 -3.3 26 -89.7 -3.531
19:26 1022 30.18 852 25.16 1 33.8 73 -3.2 26.2 -89.7 -3.531
19:27 1022 30.18 852 25.16 1 33.7 73 -3.3 26 -89.7 -3.531
19:28 1022 30.18 852 25.16 1.2 34.2 72 -3.4 26 -89.7 -3.531
19:29 1022 30.18 851 25.13 1.4 34.6 70 -3.4 25.9 -89.7 -3.531
19:30 1022 30.18 851 25.13 1.7 35 69 -3.4 25.8 -89.7 -3.531
19:31 1022 30.18 852 25.16 1.9 35.5 68 -3.4 25.9 -89.7 -3.531
19:32 1022 30.18 851 25.13 2.2 36 66 -3.5 25.7 -89.7 -3.531
19:33 1022 30.18 851 25.13 2.5 36.4 65 -3.5 25.7 -89.7 -3.531
19:34 1022 30.18 851 25.13 2.2 35.9 66 -3.5 25.7 -89.7 -3.531
19:35 1022 30.18 851 25.13 1.6 34.9 69 -3.4 25.8 -89.7 -3.531
19:36 1022 30.18 851 25.13 1.4 34.5 70 -3.4 25.8 -89.7 -3.531
19:37 1022 30.18 851 25.13 1.7 35 68 -3.6 25.6 -89.7 -3.531
19:38 1022 30.18 852 25.16 2.1 35.7 66 -3.6 25.5 -89.7 -3.531
19:39 1022 30.18 852 25.16 2 35.6 67 -3.6 25.6 -89.7 -3.531
19:40 1022 30.18 852 25.16 1.8 35.3 67 -3.7 25.4 -89.7 -3.531
19:41 1022 30.18 852 25.16 1.8 35.3 67 -3.6 25.5 -89.7 -3.531
19:42 1022 30.18 852 25.16 2 35.6 66 -3.6 25.5 -89.7 -3.531
19:43 1022 30.18 852 25.16 2.2 36 65 -3.6 25.5 -89.7 -3.531
19:44 1022 30.18 852 25.16 2.4 36.2 65 -3.6 25.6 -89.7 -3.531
19:45 1022 30.18 852 25.16 2 35.7 67 -3.5 25.8 -89.7 -3.531
19:46 1022 30.18 852 25.16 1.8 35.2 68 -3.5 25.8 -89.7 -3.531
19:47 1022 30.18 852 25.16 1.6 34.9 68 -3.6 25.6 -89.7 -3.531
19:48 1022 30.18 852 25.16 1.5 34.7 69 -3.6 25.6 -89.7 -3.531
19:49 1022 30.18 852 25.16 1 33.8 71 -3.6 25.5 -89.7 -3.531
19:50 1022 30.18 852 25.16 0.6 33 73 -3.8 25.2 -89.6 -3.528
19:51 1022 30.18 852 25.16 0.3 32.6 74 -3.9 25 -89.6 -3.528
19:52 1022 30.18 852 25.16 0.1 32.2 75 -3.9 25 -89.6 -3.528
19:53 1022 30.18 851 25.13 0.4 32.6 73 -3.9 24.9 -89.6 -3.528
19:54 1022 30.18 852 25.16 0.8 33.5 70 -4.1 24.7 -89.6 -3.528
19:55 1022 30.18 851 25.13 0.9 33.6 70 -4 24.8 -89.6 -3.528
19:56 1022 30.18 851 25.13 1.1 33.9 69 -4 24.9 -89.6 -3.528
19:57 1022 30.18 851 25.13 1.1 34 69 -4 24.8 -89.7 -3.531
19:58 1022 30.18 851 25.13 1.3 34.4 67 -4.1 24.6 -89.6 -3.528
19:59 1022 30.18 851 25.13 1.7 35 66 -4.1 24.6 -89.6 -3.528
20:00 1022 30.18 852 25.16 1.5 34.7 67 -4.1 24.7 -89.6 -3.528
20:01 1022 30.18 852 25.16 1.1 34.1 68 -4.1 24.6 -89.6 -3.528
20:02 1022 30.18 852 25.16 0.8 33.5 69 -4.2 24.5 -89.6 -3.528
20:03 1022 30.18 851 25.13 0.7 33.2 70 -4.2 24.5 -89.6 -3.528
20:04 1022 30.18 851 25.13 0.5 32.9 71 -4.3 24.3 -89.6 -3.528
20:05 1022 30.18 852 25.16 0.4 32.7 71 -4.3 24.3 -89.6 -3.528
20:06 1022 30.18 852 25.16 0.4 32.7 70 -4.4 24 -89.6 -3.528
20:07 1022 30.18 852 25.16 0.4 32.8 69 -4.6 23.8 -89.6 -3.528
20:08 1022 30.18 852 25.16 0.5 33 68 -4.6 23.7 -89.7 -3.531
20:09 1022 30.18 852 25.16 0.5 33 69 -4.5 23.9 -89.7 -3.531
20:10 1022 30.18 852 25.16 0.3 32.5 70 -4.5 23.8 -89.7 -3.531
20:11 1022 30.18 852 25.16 -0.1 31.9 71 -4.7 23.5 -89.7 -3.531
20:12 1022 30.18 852 25.16 -0.1 31.8 70 -5 23.1 -89.7 -3.531
20:13 1022 30.18 851 25.13 0 32 67 -5.4 22.3 -89.7 -3.531
20:14 1022 30.18 851 25.13 0.3 32.5 63 -5.9 21.4 -89.6 -3.528
20:15 1022 30.18 851 25.13 0.7 33.2 61 -6 21.2 -89.6 -3.528
20:16 1022 30.18 851 25.13 1.4 34.5 57 -6.2 20.8 -89.7 -3.531
20:17 1022 30.18 851 25.13 2.1 35.8 57 -5.6 21.9 -89.7 -3.531
20:18 1022 30.18 851 25.13 2.5 36.5 53 -6.2 20.8 -89.7 -3.531
20:19 1022 30.18 851 25.13 2.9 37.2 52 -6.1 21 -89.7 -3.531
20:20 1022 30.18 851 25.13 3.2 37.8 50 -6.3 20.7 -89.6 -3.528
20:21 1022 30.18 851 25.13 3.5 38.3 48 -6.5 20.3 -89.6 -3.528
20:22 1022 30.18 851 25.13 3.9 39 47 -6.4 20.5 -89.6 -3.528
20:23 1022 30.18 851 25.13 3.8 38.8 47 -6.4 20.5 -89.5 -3.524
20:24 1022 30.18 851 25.13 4 39.1 46 -6.7 19.9 -89.5 -3.524
20:25 1022 30.18 851 25.13 4.3 39.7 46 -6.3 20.6 -89.5 -3.524
20:26 1022 30.18 851 25.13 4.1 39.3 47 -6.3 20.7 -89.5 -3.524
20:27 1022 30.18 851 25.13 3.8 38.9 46 -6.6 20.1 -89.5 -3.524
20:28 1022 30.18 851 25.13 4.1 39.4 45 -6.9 19.6 -89.6 -3.528
20:29 1022 30.18 851 25.13 4.5 40.2 44 -6.8 19.7 -89.6 -3.528
20:30 1022 30.18 851 25.13 4.3 39.7 46 -6.2 20.8 -89.6 -3.528
20:31 1022 30.18 851 25.13 3 37.3 51 -6.2 20.8 -89.7 -3.531
20:32 1022 30.18 851 25.13 2.5 36.5 52 -6.3 20.7 -89.7 -3.531
20:33 1022 30.18 851 25.13 2.6 36.6 52 -6.2 20.8 -89.7 -3.531
20:34 1022 30.18 851 25.13 2.5 36.4 54 -5.9 21.4 -89.7 -3.531
20:35 1022 30.18 851 25.13 2.3 36.2 54 -6 21.2 -89.6 -3.528
20:36 1022 30.18 851 25.13 2.2 36 55 -5.8 21.5 -89.6 -3.528
20:37 1022 30.18 851 25.13 2.4 36.3 55 -5.9 21.5 -89.6 -3.528
20:38 1022 30.18 851 25.13 2.1 35.9 56 -5.8 21.6 -89.5 -3.524
20:39 1022 30.18 851 25.13 2.1 35.8 56 -5.7 21.7 -89.5 -3.524
20:40 1022 30.18 851 25.13 2.1 35.8 55 -6.1 21 -89.5 -3.524
20:41 1022 30.18 851 25.13 1.3 34.4 58 -5.9 21.3 -89.5 -3.524
20:42 1022 30.18 851 25.13 0.7 33.3 63 -5.6 21.9 -89.5 -3.524
20:43 1022 30.18 851 25.13 0.7 33.2 63 -5.6 21.8 -89.5 -3.524
20:44 1022 30.18 851 25.13 0.6 33.1 62 -5.9 21.3 -89.5 -3.524
20:45 1022 30.18 851 25.13 0.3 32.5 63 -5.9 21.4 -89.6 -3.528
20:46 1022 30.18 851 25.13 0.4 32.7 63 -5.9 21.4 -89.6 -3.528
20:47 1022 30.18 851 25.13 0.3 32.5 65 -5.5 22.1 -89.6 -3.528
20:48 1022 30.18 851 25.13 -0 32 66 -5.5 22 -89.6 -3.528
20:49 1022 30.18 851 25.13 0.2 32.4 65 -5.6 22 -89.6 -3.528
20:50 1022 30.18 851 25.13 0.5 32.9 64 -5.6 21.9 -89.6 -3.528
20:51 1022 30.18 851 25.13 0.3 32.6 62 -6 21.2 -89.6 -3.528
20:52 1022 30.18 851 25.13 0 32.1 64 -6 21.2 -89.6 -3.528
20:53 1022 30.18 851 25.13 -0.3 31.5 65 -6 21.2 -89.6 -3.528
20:54 1022 30.18 851 25.13 -0.5 31.1 66 -6.1 21.1 -89.6 -3.528
20:55 1022 30.18 851 25.13 -0.7 30.8 68 -5.9 21.3 -89.7 -3.531
20:56 1022 30.18 851 25.13 -0.7 30.7 67 -6.1 21 -89.7 -3.531
20:57 1022 30.18 851 25.13 -0.7 30.7 68 -6 21.2 -89.7 -3.531
20:58 1022 30.18 851 25.13 -0.8 30.6 68 -6 21.1 -89.7 -3.531
20:59 1022 30.18 851 25.13 -0.8 30.6 66 -6.3 20.7 -89.7 -3.531
21:00 1022 30.18 851 25.13 -0.8 30.6 65 -6.5 20.3 -89.7 -3.531
21:01 1022 30.18 851 25.13 -1 30.3 67 -6.4 20.5 -89.7 -3.531
21:02 1022 30.18 851 25.13 -0.7 30.7 64 -6.7 20 -89.7 -3.531
21:03 1022 30.18 851 25.13 -0.8 30.7 66 -6.3 20.6 -89.7 -3.531
21:04 1022 30.18 851 25.13 -0.4 31.4 64 -6.3 20.6 -89.7 -3.531
21:05 1022 30.18 851 25.13 -0 31.9 61 -6.7 19.9 -89.7 -3.531
21:06 1022 30.18 851 25.13 -0.3 31.4 63 -6.5 20.3 -89.7 -3.531
21:07 1022 30.18 851 25.13 -0.5 31.1 64 -6.6 20.2 -89.7 -3.531
21:08 1022 30.18 851 25.13 -0.7 30.8 65 -6.5 20.4 -89.7 -3.531
21:09 1022 30.18 851 25.13 -0.8 30.6 66 -6.4 20.5 -89.7 -3.531
21:10 1022 30.18 851 25.13 -0.6 30.9 66 -6.1 21 -89.7 -3.531
21:11 1022 30.18 851 25.13 0 32.1 65 -5.8 21.5 -89.7 -3.531
21:12 1022 30.18 851 25.13 0.9 33.7 62 -5.6 22 -89.8 -3.535
21:13 1022 30.18 851 25.13 1.7 35.1 59 -5.4 22.3 -89.8 -3.535
21:14 1022 30.18 851 25.13 2.4 36.3 56 -5.6 21.9 -89.8 -3.535
21:15 1022 30.18 851 25.13 2.3 36.2 55 -5.8 21.6 -89.8 -3.535
21:16 1022 30.18 851 25.13 1.8 35.3 59 -5.4 22.2 -89.7 -3.531
21:17 1022 30.18 851 25.13 1.6 34.9 59 -5.6 22 -89.7 -3.531
21:18 1022 30.18 851 25.13 1.4 34.5 59 -5.7 21.8 -89.7 -3.531
21:19 1022 30.18 851 25.13 1.1 34 60 -5.7 21.7 -89.7 -3.531
21:20 1022 30.18 851 25.13 0.9 33.6 61 -5.7 21.8 -89.7 -3.531
21:21 1022 30.18 851 25.13 0.7 33.3 63 -5.5 22.2 -89.7 -3.531
21:22 1022 30.18 851 25.13 0.6 33.2 64 -5.4 22.3 -89.7 -3.531
21:23 1022 30.18 851 25.13 0.6 33 64 -5.4 22.3 -89.7 -3.531
21:24 1022 30.18 851 25.13 0.4 32.8 65 -5.3 22.4 -89.7 -3.531
21:25 1022 30.18 851 25.13 0.4 32.8 65 -5.4 22.2 -89.7 -3.531
21:26 1022 30.18 851 25.13 0.6 33 63 -5.6 22 -89.7 -3.531
21:27 1021 30.15 851 25.13 1.2 34.1 61 -5.5 22 -89.7 -3.531
21:28 1021 30.15 851 25.13 1.7 35 58 -5.7 21.8 -89.7 -3.531
21:29 1021 30.15 851 25.13 2 35.6 57 -5.6 21.8 -89.7 -3.531
21:30 1022 30.18 851 25.13 2.2 36 56 -5.6 22 -89.7 -3.531
21:31 1022 30.18 851 25.13 2.3 36.1 56 -5.6 21.9 -89.7 -3.531
21:32 1022 30.18 851 25.13 2.4 36.3 55 -5.7 21.7 -89.7 -3.531
21:33 1022 30.18 851 25.13 2.4 36.4 55 -5.7 21.7 -89.7 -3.531
21:34 1022 30.18 851 25.13 2.4 36.3 55 -5.7 21.8 -89.7 -3.531
21:35 1022 30.18 851 25.13 2.4 36.3 55 -5.7 21.8 -89.7 -3.531
21:36 1022 30.18 851 25.13 2.4 36.3 55 -5.7 21.7 -89.7 -3.531
21:37 1022 30.18 851 25.13 2.4 36.3 55 -5.8 21.6 -89.7 -3.531
21:38 1022 30.18 851 25.13 2.2 36 55 -5.8 21.6 -89.7 -3.531
21:39 1022 30.18 851 25.13 1.9 35.5 57 -5.8 21.5 -89.7 -3.531
21:40 1022 30.18 851 25.13 1.7 35.1 57 -5.9 21.3 -89.7 -3.531
21:41 1022 30.18 851 25.13 1.5 34.7 58 -5.9 21.4 -89.7 -3.531
21:42 1022 30.18 851 25.13 1.5 34.7 57 -6 21.2 -89.7 -3.531
21:43 1022 30.18 851 25.13 1.4 34.5 58 -5.9 21.4 -89.7 -3.531
21:44 1022 30.18 851 25.13 1.3 34.3 59 -6 21.3 -89.7 -3.531
21:45 1022 30.18 851 25.13 1.4 34.5 58 -6 21.2 -89.7 -3.531
21:46 1022 30.18 851 25.13 1.4 34.5 58 -6 21.1 -89.7 -3.531
21:47 1022 30.18 851 25.13 1 33.8 59 -6.1 21 -89.7 -3.531
21:48 1022 30.18 851 25.13 0.5 32.8 62 -6 21.1 -89.7 -3.531
21:49 1022 30.18 851 25.13 0 32 64 -6 21.2 -89.7 -3.531
21:50 1022 30.18 851 25.13 -0.3 31.5 65 -6 21.2 -89.7 -3.531
21:51 1022 30.18 851 25.13 -0.6 30.9 67 -5.9 21.4 -89.8 -3.535
21:52 1022 30.18 851 25.13 -0.7 30.8 67 -6 21.2 -89.8 -3.535
21:53 1022 30.18 851 25.13 -0.7 30.7 67 -6 21.2 -89.9 -3.539
21:54 1022 30.18 851 25.13 -0.7 30.8 68 -5.9 21.4 -89.9 -3.539
21:55 1022 30.18 851 25.13 -0.4 31.2 67 -5.9 21.4 -89.9 -3.539
21:56 1022 30.18 851 25.13 -0.1 31.8 66 -5.8 21.5 -89.9 -3.539
21:57 1022 30.18 851 25.13 -0.1 31.9 66 -5.7 21.7 -90 -3.543
21:58 1022 30.18 851 25.13 -0.1 31.8 66 -5.8 21.6 -90 -3.543
21:59 1022 30.18 851 25.13 -0.1 31.8 66 -5.7 21.8 -90 -3.543
22:00 1022 30.18 851 25.13 -0.1 31.8 67 -5.6 22 -90.1 -3.547
22:01 1022 30.18 851 25.13 -0.2 31.6 68 -5.5 22.1 -90.1 -3.547
22:02 1022 30.18 851 25.13 -0.3 31.4 68 -5.5 22 -90.1 -3.547
22:03 1022 30.18 851 25.13 -0.3 31.5 68 -5.6 22 -90.2 -3.551
22:04 1022 30.18 851 25.13 -0.2 31.6 67 -5.6 21.9 -90.2 -3.551
22:05 1022 30.18 851 25.13 -0.1 31.8 66 -5.7 21.8 -90.2 -3.551
22:06 1022 30.18 851 25.13 0.2 32.3 65 -5.7 21.7 -90.2 -3.551
22:07 1022 30.18 851 25.13 0.3 32.6 66 -5.2 22.6 -90.2 -3.551
22:08 1022 30.18 851 25.13 0.2 32.4 64 -5.8 21.5 -90.2 -3.551
22:09 1022 30.18 851 25.13 0.7 33.3 60 -6.2 20.9 -90.2 -3.551
22:10 1022 30.18 851 25.13 1.6 34.8 58 -5.9 21.4 -90.1 -3.547
22:11 1022 30.18 851 25.13 2 35.5 57 -5.6 21.9 -90.1 -3.547
22:12 1022 30.18 851 25.13 2 35.7 57 -5.6 21.9 -90 -3.543
22:13 1022 30.18 851 25.13 2.1 35.7 58 -5.3 22.4 -90 -3.543
22:14 1022 30.18 851 25.13 2 35.6 59 -5.2 22.7 -90 -3.543
22:15 1022 30.18 851 25.13 1.8 35.3 59 -5.3 22.4 -90 -3.543
22:16 1022 30.18 851 25.13 1.8 35.2 60 -5.2 22.6 -90 -3.543
22:17 1022 30.18 851 25.13 1.7 35 61 -5 22.9 -90 -3.543
22:18 1022 30.18 851 25.13 1.4 34.5 62 -5.1 22.8 -90.1 -3.547
22:19 1022 30.18 851 25.13 1.2 34.1 62 -5.3 22.5 -90.2 -3.551
22:20 1022 30.18 851 25.13 1.1 33.9 64 -5.1 22.8 -90.2 -3.551
22:21 1022 30.18 851 25.13 0.8 33.4 65 -5.1 22.8 -90.2 -3.551
22:22 1022 30.18 851 25.13 0.6 33.1 64 -5.4 22.2 -90.2 -3.551
22:23 1022 30.18 851 25.13 0.6 33 65 -5.3 22.4 -90.2 -3.551
22:24 1022 30.18 851 25.13 0.4 32.8 65 -5.5 22.1 -90.2 -3.551
22:25 1022 30.18 851 25.13 0.5 32.9 65 -5.4 22.3 -90.1 -3.547
22:26 1022 30.18 851 25.13 0.5 33 64 -5.4 22.2 -90.1 -3.547
22:27 1022 30.18 851 25.13 0.5 32.9 64 -5.4 22.2 -90.1 -3.547
22:28 1022 30.18 851 25.13 0.4 32.7 65 -5.4 22.3 -90.1 -3.547
22:29 1022 30.18 851 25.13 0.3 32.5 66 -5.3 22.4 -90.1 -3.547
22:30 1022 30.18 851 25.13 0.1 32.3 67 -5.4 22.3 -90.1 -3.547
22:31 1022 30.18 851 25.13 0.1 32.3 66 -5.4 22.2 -90.1 -3.547
22:32 1022 30.18 851 25.13 0.3 32.5 65 -5.5 22.1 -90.1 -3.547
22:33 1022 30.18 851 25.13 0.4 32.8 64 -5.7 21.7 -90.1 -3.547
22:34 1022 30.18 851 25.13 0.7 33.3 63 -5.5 22 -90.1 -3.547
22:35 1022 30.18 851 25.13 0.7 33.3 63 -5.5 22.1 -90.1 -3.547
22:36 1022 30.18 851 25.13 0.6 33.1 63 -5.7 21.8 -90.1 -3.547
22:37 1022 30.18 851 25.13 0.6 33 62 -5.8 21.5 -90.1 -3.547
22:38 1022 30.18 851 25.13 0.7 33.3 61 -6 21.1 -90.1 -3.547
22:39 1022 30.18 851 25.13 1.2 34.1 58 -6.1 20.9 -90.1 -3.547
22:40 1022 30.18 851 25.13 1.5 34.7 56 -6.3 20.7 -90 -3.543
22:41 1022 30.18 851 25.13 1.8 35.3 55 -6.3 20.7 -90 -3.543
22:42 1022 30.18 851 25.13 2 35.6 54 -6.3 20.6 -90 -3.543
22:43 1022 30.18 851 25.13 2 35.6 53 -6.6 20.1 -90 -3.543
22:44 1022 30.18 851 25.13 2.3 36.1 51 -6.8 19.8 -90 -3.543
22:45 1022 30.18 851 25.13 2.5 36.5 50 -6.8 19.7 -90 -3.543
22:46 1022 30.18 851 25.13 2.7 36.8 52 -6.3 20.7 -90 -3.543
22:47 1022 30.18 851 25.13 2.4 36.4 52 -6.5 20.3 -90 -3.543
22:48 1022 30.18 851 25.13 2.3 36.1 53 -6.4 20.6 -90 -3.543
22:49 1022 30.18 851 25.13 1.9 35.4 56 -6.1 21.1 -90 -3.543
22:50 1022 30.18 851 25.13 1 33.8 59 -6 21.1 -90 -3.543
22:51 1022 30.18 851 25.13 0.1 32.2 63 -6.1 21 -90 -3.543
22:52 1022 30.18 851 25.13 -0.5 31.1 66 -6.1 20.9 -90 -3.543
22:53 1022 30.18 851 25.13 -0.8 30.6 67 -6.2 20.8 -90 -3.543
22:54 1022 30.18 851 25.13 -0.9 30.3 67 -6.2 20.8 -90 -3.543
22:55 1022 30.18 851 25.13 -1 30.2 68 -6.1 21 -90.1 -3.547
22:56 1022 30.18 851 25.13 -1.1 29.9 69 -6.2 20.9 -90.1 -3.547
22:57 1022 30.18 851 25.13 -1.3 29.7 69 -6.2 20.9 -90.1 -3.547
22:58 1022 30.18 851 25.13 -1.5 29.4 70 -6.2 20.9 -90.1 -3.547
22:59 1022 30.18 851 25.13 -1.5 29.3 70 -6.2 20.8 -90.2 -3.551
23:00 1022 30.18 851 25.13 -1.4 29.4 70 -6.2 20.8 -90.2 -3.551
23:01 1022 30.18 851 25.13 -1.5 29.3 71 -6.2 20.9 -90.2 -3.551
23:02 1022 30.18 851 25.13 -1.7 29 72 -6.2 20.9 -90.2 -3.551
23:03 1022 30.18 851 25.13 -1.9 28.7 72 -6.2 20.9 -90.2 -3.551
23:04 1022 30.18 851 25.13 -2.1 28.3 73 -6.2 20.9 -90.2 -3.551
23:05 1022 30.18 851 25.13 -2.2 28 74 -6.2 20.8 -90.2 -3.551
23:06 1022 30.18 851 25.13 -2.4 27.7 75 -6.3 20.7 -90.2 -3.551
23:07 1022 30.18 851 25.13 -2.5 27.4 76 -6.3 20.7 -90.2 -3.551
23:08 1022 30.18 851 25.13 -2.6 27.3 75 -6.4 20.5 -90.3 -3.555
23:09 1022 30.18 851 25.13 -2.5 27.5 74 -6.5 20.3 -90.3 -3.555
23:10 1022 30.18 851 25.13 -2.2 28 72 -6.6 20.1 -90.3 -3.555
23:11 1022 30.18 851 25.13 -1.9 28.6 70 -6.7 19.9 -90.3 -3.555
23:12 1022 30.18 851 25.13 -1.5 29.2 69 -6.6 20.2 -90.3 -3.555
23:13 1022 30.18 851 25.13 -1.4 29.4 68 -6.5 20.3 -90.4 -3.559
23:14 1022 30.18 851 25.13 -1.4 29.4 68 -6.5 20.3 -90.4 -3.559
23:15 1022 30.18 851 25.13 -1.6 29.2 69 -6.5 20.3 -90.4 -3.559
23:16 1022 30.18 851 25.13 -1.8 28.8 71 -6.4 20.4 -90.4 -3.559
23:17 1022 30.18 851 25.13 -2 28.5 71 -6.5 20.3 -90.4 -3.559
23:18 1022 30.18 851 25.13 -2 28.3 71 -6.6 20.1 -90.4 -3.559
23:19 1022 30.18 851 25.13 -1.9 28.5 70 -6.7 20 -90.5 -3.563
23:20 1022 30.18 851 25.13 -1.8 28.8 69 -6.7 20 -90.5 -3.563
23:21 1022 30.18 851 25.13 -1.7 29 69 -6.6 20.1 -90.5 -3.563
23:22 1022 30.18 851 25.13 -1.7 29 69 -6.6 20.2 -90.5 -3.563
23:23 1022 30.18 851 25.13 -1.8 28.8 69 -6.8 19.8 -90.5 -3.563
23:24 1022 30.18 851 25.13 -1.9 28.6 69 -6.9 19.6 -90.6 -3.567
23:25 1022 30.18 851 25.13 -1.8 28.8 68 -7 19.4 -90.6 -3.567
23:26 1022 30.18 851 25.13 -1.6 29.2 67 -7 19.5 -90.6 -3.567
23:27 1022 30.18 851 25.13 -1.4 29.4 66 -7.1 19.3 -90.6 -3.567
23:28 1022 30.18 851 25.13 -1.4 29.5 66 -7 19.5 -90.6 -3.567
23:29 1022 30.18 851 25.13 -1.6 29.1 67 -6.9 19.5 -90.7 -3.571
23:30 1022 30.18 851 25.13 -1.7 29 67 -7.1 19.3 -90.7 -3.571
23:31 1022 30.18 851 25.13 -1.4 29.5 64 -7.3 18.8 -90.7 -3.571
23:32 1022 30.18 851 25.13 -1 30.1 63 -7.2 19.1 -90.7 -3.571
23:33 1022 30.18 851 25.13 -1.1 30.1 64 -7.1 19.2 -90.7 -3.571
23:34 1022 30.18 851 25.13 -1.2 29.8 64 -7.1 19.2 -90.7 -3.571
23:35 1022 30.18 851 25.13 -1.5 29.4 65 -7.2 19.1 -90.7 -3.571
23:36 1022 30.18 851 25.13 -1.8 28.7 67 -7.1 19.1 -90.7 -3.571
23:37 1022 30.18 851 25.13 -2.2 28 69 -7.1 19.1 -90.7 -3.571
23:38 1022 30.18 851 25.13 -2.2 28 69 -7.1 19.2 -90.7 -3.571
23:39 1022 30.18 851 25.13 -2.2 28.1 70 -6.9 19.5 -90.8 -3.575
23:40 1022 30.18 851 25.13 -2.1 28.2 70 -6.8 19.7 -90.8 -3.575
23:41 1022 30.18 851 25.13 -2 28.5 70 -6.7 19.9 -90.9 -3.579
23:42 1022 30.18 851 25.13 -1.8 28.7 70 -6.6 20.1 -90.9 -3.579
23:43 1022 30.18 851 25.13 -1.8 28.8 70 -6.5 20.2 -90.9 -3.579
23:44 1022 30.18 851 25.13 -1.9 28.6 71 -6.5 20.3 -90.9 -3.579
23:45 1022 30.18 851 25.13 -2 28.3 71 -6.6 20.2 -90.9 -3.579
23:46 1022 30.18 851 25.13 -2.2 28 72 -6.7 20 -91 -3.583
23:47 1022 30.18 851 25.13 -2.3 27.9 72 -6.7 20 -91 -3.583
23:48 1022 30.18 851 25.13 -2.4 27.8 72 -6.7 19.9 -91 -3.583
23:49 1022 30.18 851 25.13 -2.3 27.9 71 -6.7 19.9 -91 -3.583
23:50 1022 30.18 851 25.13 -2.2 28.1 71 -6.7 19.9 -91 -3.583
23:51 1022 30.18 851 25.13 -2.2 28 71 -6.8 19.7 -91.1 -3.587
23:52 1022 30.18 851 25.13 -2.3 27.9 71 -6.8 19.7 -91.1 -3.587
23:53 1022 30.18 851 25.13 -2.4 27.7 72 -6.8 19.7 -91.1 -3.587
23:54 1022 30.18 851 25.13 -2.5 27.6 72 -6.8 19.7 -91.1 -3.587
23:55 1022 30.18 851 25.13 -2.5 27.4 72 -6.9 19.6 -91.1 -3.587
23:56 1022 30.18 851 25.13 -2.6 27.3 73 -6.9 19.6 -91.1 -3.587
23:57 1022 30.18 851 25.13 -2.6 27.3 72 -6.9 19.5 -91.1 -3.587
23:58 1022 30.18 851 25.13 -2.6 27.3 73 -6.9 19.6 -91.2 -3.591
23:59 1022 30.18 851 25.13 -2.6 27.2 72 -7 19.4 -91.2 -3.591
24:00 1022 30.18 851 25.13 -2.7 27.1 73 -6.9 19.5 -91.2 -3.591